Observation data for Aiken on 01/19/2019      Previous  Date  Next       Current Mesonet Observations  Soil Data  Daily Summary Page  Observations in Plain Language
KAI1 190600Z 34022KT 00/M03 A3005 RMK A01 T00011026  RH  082%=      5-min Rain = 0
KAI1 190601Z 35021KT 00/M03 A3005 RMK A01 T00011026  RH  082%=      5-min Rain = 0
KAI1 190602Z 34025G30KT 00/M03 A3005 RMK A01 T00011025  RH  082%=      5-min Rain = 0
KAI1 190603Z 34024G29KT 00/M03 A3005 RMK A01 T00011025  RH  082%=      5-min Rain = 0
KAI1 190604Z 34023KT 00/M03 A3005 RMK A01 T00011025  RH  083%=      5-min Rain = 0
KAI1 190605Z 34023KT 00/M02 A3005 RMK A01 T00011024  RH  083%=      5-min Rain = 0
KAI1 190606Z 34021G27KT 00/M02 A3005 RMK A01 T00011023  RH  084%=      5-min Rain = 0
KAI1 190607Z 34018G24KT 00/02 A3005 RMK A01 T00000-21  RH  085%=      5-min Rain = 0
KAI1 190608Z 35024KT 00/02 A3005 RMK A01 T00-00-21  RH  086%=      5-min Rain = 0
KAI1 190609Z 35022G27KT M00/M02 A3005 RMK A01 T10011022  RH  086%=      5-min Rain = 0
KAI1 190610Z 34024KT M00/M02 A3005 RMK A01 T10011022  RH  086%=      5-min Rain = 0
KAI1 190611Z 34021KT M00/M02 A3005 RMK A01 T10011022  RH  086%=      5-min Rain = 0
KAI1 190612Z 34022KT M00/M02 A3005 RMK A01 T10011021  RH  086%=      5-min Rain = 0
KAI1 190613Z 34023G31KT 00/02 A3005 RMK A01 T00-00-21  RH  086%=      5-min Rain = 0
KAI1 190614Z 34026KT 00/02 A3005 RMK A01 T00-00-21  RH  086%=      5-min Rain = 0
KAI1 190615Z 34022G27KT 00/02 A3005 RMK A01 T00000-21  RH  085%=      5-min Rain = 0
KAI1 190616Z 34023G28KT 00/M02 A3006 RMK A01 T00011021  RH  085%=      5-min Rain = 0
KAI1 190617Z 35024KT 00/M02 A3006 RMK A01 T00011022  RH  085%=      5-min Rain = 0
KAI1 190618Z 35020KT 00/M02 A3006 RMK A01 T00011022  RH  084%=      5-min Rain = 0
KAI1 190619Z 35020KT 00/M02 A3006 RMK A01 T00011022  RH  084%=      5-min Rain = 0
KAI1 190620Z 35022G27KT 00/M02 A3006 RMK A01 T00021022  RH  084%=      5-min Rain = 0
KAI1 190621Z 35020KT 00/M02 A3006 RMK A01 T00021022  RH  084%=      5-min Rain = 0
KAI1 190622Z 35022G27KT 00/M02 A3006 RMK A01 T00021022  RH  084%=      5-min Rain = 0
KAI1 190623Z 35024KT 00/M02 A3006 RMK A01 T00021022  RH  084%=      5-min Rain = 0
KAI1 190624Z 35024G29KT 00/M02 A3006 RMK A01 T00021023  RH  083%=      5-min Rain = 0
KAI1 190625Z 35025KT 00/M02 A3006 RMK A01 T00021024  RH  083%=      5-min Rain = 0
KAI1 190626Z 34022KT 00/M02 A3006 RMK A01 T00031023  RH  083%=      5-min Rain = 0
KAI1 190627Z 34026KT 00/M02 A3005 RMK A01 T00021023  RH  083%=      5-min Rain = 0
KAI1 190628Z 34024KT 00/M02 A3005 RMK A01 T00021023  RH  083%=      5-min Rain = 0
KAI1 190629Z 34024KT 00/M02 A3005 RMK A01 T00021023  RH  083%=      5-min Rain = 0
KAI1 190630Z 34025KT 00/M02 A3005 RMK A01 T00021023  RH  083%=      5-min Rain = 0
KAI1 190631Z 35024KT 00/M02 A3006 RMK A01 T00021023  RH  083%=      5-min Rain = 0
KAI1 190632Z 34025KT 00/M02 A3005 RMK A01 T00031023  RH  083%=      5-min Rain = 0
KAI1 190633Z 34022G27KT 00/M02 A3005 RMK A01 T00021023  RH  083%=      5-min Rain = 0
KAI1 190634Z 34022G29KT 00/M02 A3005 RMK A01 T00021022  RH  084%=      5-min Rain = 0
KAI1 190635Z 34022G27KT 00/M02 A3005 RMK A01 T00021022  RH  084%=      5-min Rain = 0
KAI1 190636Z 34022KT 00/M02 A3005 RMK A01 T00011022  RH  084%=      5-min Rain = 0
KAI1 190637Z 34025KT 00/M02 A3006 RMK A01 T00011022  RH  084%=      5-min Rain = 0
KAI1 190638Z 34024KT 00/M02 A3006 RMK A01 T00011022  RH  084%=      5-min Rain = 0
KAI1 190639Z 35026KT 00/M02 A3005 RMK A01 T00011023  RH  084%=      5-min Rain = 0
KAI1 190640Z 34024KT 00/M02 A3006 RMK A01 T00021023  RH  084%=      5-min Rain = 0
KAI1 190641Z 34019G24KT 00/M02 A3006 RMK A01 T00011022  RH  084%=      5-min Rain = 0
KAI1 190642Z 34023KT 00/M02 A3006 RMK A01 T00011021  RH  085%=      5-min Rain = 0
KAI1 190643Z 34024KT 00/M02 A3006 RMK A01 T00011021  RH  085%=      5-min Rain = 0
KAI1 190644Z 34020KT 00/M02 A3006 RMK A01 T00011021  RH  085%=      5-min Rain = 0
KAI1 190645Z 34022KT 00/M02 A3006 RMK A01 T00011021  RH  085%=      5-min Rain = 0
KAI1 190646Z 34020KT 00/M02 A3006 RMK A01 T00021020  RH  085%=      5-min Rain = 0
KAI1 190647Z 34022KT 00/M02 A3006 RMK A01 T00021020  RH  085%=      5-min Rain = 0
KAI1 190648Z 34020KT 00/M02 A3006 RMK A01 T00021020  RH  085%=      5-min Rain = 0
KAI1 190649Z 34018KT 00/M02 A3006 RMK A01 T00021020  RH  085%=      5-min Rain = 0
KAI1 190650Z 34021KT 00/M02 A3006 RMK A01 T00021019  RH  086%=      5-min Rain = 0
KAI1 190651Z 34020KT 00/M02 A3006 RMK A01 T00021019  RH  086%=      5-min Rain = 0
KAI1 190652Z 34020KT 00/M02 A3006 RMK A01 T00021019  RH  086%=      5-min Rain = 0
KAI1 190653Z 34019KT 00/M02 A3006 RMK A01 T00021019  RH  086%=      5-min Rain = 0
KAI1 190654Z 34017KT 00/M02 A3007 RMK A01 T00021018  RH  086%=      5-min Rain = 0
KAI1 190655Z 34017KT 00/M02 A3007 RMK A01 T00021018  RH  086%=      5-min Rain = 0
KAI1 190656Z 34021KT 00/M02 A3007 RMK A01 T00021018  RH  087%=      5-min Rain = 0
KAI1 190657Z 34020KT 00/M02 A3007 RMK A01 T00021018  RH  086%=      5-min Rain = 0
KAI1 190658Z 33015KT 00/M02 A3007 RMK A01 T00031018  RH  086%=      5-min Rain = 0
KAI1 190659Z 34016KT 00/M02 A3007 RMK A01 T00031017  RH  086%=      5-min Rain = 0
KAI1 190700Z 34019G25KT 00/M02 A3007 RMK A01 T00031017  RH  086%=      5-min Rain = 0
KAI1 190701Z 33021KT 00/M02 A3007 RMK A01 T00031018  RH  086%=      5-min Rain = 0
KAI1 190702Z 33023G30KT 00/M02 A3007 RMK A01 T00041018  RH  085%=      5-min Rain = 0
KAI1 190703Z 34022KT 00/M02 A3007 RMK A01 T00041019  RH  084%=      5-min Rain = 0
KAI1 190704Z 34022G31KT 01/M02 A3007 RMK A01 T00051019  RH  084%=      5-min Rain = 0
KAI1 190705Z 33027KT 01/M02 A3007 RMK A01 T00061021  RH  082%=      5-min Rain = 0
KAI1 190706Z 34026G31KT 01/M02 A3007 RMK A01 T00061023  RH  080%=      5-min Rain = 0
KAI1 190707Z 34024G31KT 01/M02 A3007 RMK A01 T00071024  RH  080%=      5-min Rain = 0
KAI1 190708Z 34026G33KT 01/M03 A3007 RMK A01 T00071025  RH  079%=      5-min Rain = 0
KAI1 190709Z 35026G32KT 01/M03 A3007 RMK A01 T00071027  RH  078%=      5-min Rain = 0
KAI1 190710Z 35025KT 01/M03 A3007 RMK A01 T00071027  RH  078%=      5-min Rain = 0
KAI1 190711Z 34026G35KT 01/M03 A3007 RMK A01 T00071027  RH  078%=      5-min Rain = 0
KAI1 190712Z 35030G37KT 01/M03 A3008 RMK A01 T00071027  RH  078%=      5-min Rain = 0
KAI1 190713Z 34025KT 01/M03 A3008 RMK A01 T00071027  RH  078%=      5-min Rain = 0
KAI1 190714Z 35028G33KT 01/M03 A3008 RMK A01 T00071027  RH  078%=      5-min Rain = 0
KAI1 190715Z 35027KT 01/M03 A3008 RMK A01 T00061027  RH  078%=      5-min Rain = 0
KAI1 190716Z 34027KT 01/M03 A3007 RMK A01 T00061027  RH  078%=      5-min Rain = 0
KAI1 190717Z 34025KT 01/M03 A3008 RMK A01 T00061027  RH  079%=      5-min Rain = 0
KAI1 190718Z 34023KT 01/M03 A3008 RMK A01 T00061027  RH  079%=      5-min Rain = 0
KAI1 190719Z 34023G28KT 01/M03 A3008 RMK A01 T00061026  RH  079%=      5-min Rain = 0
KAI1 190720Z 35020KT 01/M03 A3008 RMK A01 T00051026  RH  080%=      5-min Rain = 0
KAI1 190721Z 34021KT 01/M03 A3008 RMK A01 T00051026  RH  080%=      5-min Rain = 0
KAI1 190722Z 34021KT 01/M03 A3008 RMK A01 T00051025  RH  080%=      5-min Rain = 0
KAI1 190723Z 34024KT 01/M03 A3008 RMK A01 T00051025  RH  080%=      5-min Rain = 0
KAI1 190724Z 34023KT 01/M03 A3008 RMK A01 T00051026  RH  080%=      5-min Rain = 0
KAI1 190725Z 34020KT 01/M03 A3008 RMK A01 T00051026  RH  080%=      5-min Rain = 0
KAI1 190726Z 34020KT 01/M03 A3008 RMK A01 T00051026  RH  080%=      5-min Rain = 0
KAI1 190727Z 34020G26KT 01/M03 A3008 RMK A01 T00051025  RH  080%=      5-min Rain = 0
KAI1 190728Z 34020KT 01/M03 A3007 RMK A01 T00051025  RH  080%=      5-min Rain = 0
KAI1 190729Z 34016KT 01/M02 A3008 RMK A01 T00051024  RH  081%=      5-min Rain = 0
KAI1 190730Z 33018KT 01/M02 A3007 RMK A01 T00051024  RH  081%=      5-min Rain = 0
KAI1 190731Z 34022G27KT 01/M02 A3007 RMK A01 T00051024  RH  081%=      5-min Rain = 0
KAI1 190732Z 34024KT 01/M03 A3007 RMK A01 T00051025  RH  080%=      5-min Rain = 0
KAI1 190733Z 34024KT 01/M03 A3007 RMK A01 T00051027  RH  079%=      5-min Rain = 0
KAI1 190734Z 34022KT 01/M03 A3007 RMK A01 T00051027  RH  079%=      5-min Rain = 0
KAI1 190735Z 34021KT 00/M03 A3008 RMK A01 T00041027  RH  080%=      5-min Rain = 0
KAI1 190736Z 34023KT 00/M03 A3008 RMK A01 T00041027  RH  080%=      5-min Rain = 0
KAI1 190737Z 34020KT 00/M03 A3008 RMK A01 T00041027  RH  080%=      5-min Rain = 0
KAI1 190738Z 34024G32KT 00/M03 A3008 RMK A01 T00041027  RH  080%=      5-min Rain = 0
KAI1 190739Z 34027KT 00/M03 A3007 RMK A01 T00041029  RH  079%=      5-min Rain = 0
KAI1 190740Z 33027KT 00/M03 A3007 RMK A01 T00041029  RH  078%=      5-min Rain = 0
KAI1 190741Z 34023G28KT 00/M03 A3007 RMK A01 T00041030  RH  078%=      5-min Rain = 0
KAI1 190742Z 34024G30KT 00/M03 A3007 RMK A01 T00041030  RH  078%=      5-min Rain = 0
KAI1 190743Z 34025KT 00/M03 A3008 RMK A01 T00031030  RH  078%=      5-min Rain = 0
KAI1 190744Z 34027KT 00/M03 A3007 RMK A01 T00021031  RH  078%=      5-min Rain = 0
KAI1 190745Z 34027G33KT 00/M03 A3007 RMK A01 T00021032  RH  078%=      5-min Rain = 0
KAI1 190746Z 34024KT 00/M03 A3007 RMK A01 T00011032  RH  078%=      5-min Rain = 0
KAI1 190747Z 34027KT 00/03 A3007 RMK A01 T00000-33  RH  078%=      5-min Rain = 0
KAI1 190748Z 34024KT 00/03 A3007 RMK A01 T00000-33  RH  079%=      5-min Rain = 0
KAI1 190749Z 34027KT M00/M03 A3007 RMK A01 T10011034  RH  079%=      5-min Rain = 0
KAI1 190750Z 34025KT M00/M03 A3008 RMK A01 T10011034  RH  078%=      5-min Rain = 0
KAI1 190751Z 34025G30KT M00/M03 A3008 RMK A01 T10011034  RH  079%=      5-min Rain = 0
KAI1 190752Z 34022G28KT M00/M04 A3008 RMK A01 T10021035  RH  079%=      5-min Rain = 0
KAI1 190753Z 34024G30KT M00/M04 A3008 RMK A01 T10031035  RH  079%=      5-min Rain = 0
KAI1 190754Z 34025G30KT M00/M04 A3008 RMK A01 T10031035  RH  079%=      5-min Rain = 0
KAI1 190755Z 34025G30KT M00/M04 A3007 RMK A01 T10031036  RH  079%=      5-min Rain = 0
KAI1 190756Z 34027KT M00/M04 A3007 RMK A01 T10031036  RH  078%=      5-min Rain = 0
KAI1 190757Z 34027G34KT M00/M04 A3008 RMK A01 T10031036  RH  078%=      5-min Rain = 0
KAI1 190758Z 34026KT M00/M04 A3007 RMK A01 T10031037  RH  078%=      5-min Rain = 0
KAI1 190759Z 34026G31KT M00/M04 A3008 RMK A01 T10031037  RH  078%=      5-min Rain = 0
KAI1 190800Z 34024KT M00/M04 A3008 RMK A01 T10031037  RH  078%=      5-min Rain = 0
KAI1 190801Z 34029G34KT M00/M04 A3008 RMK A01 T10041038  RH  078%=      5-min Rain = 0
KAI1 190802Z 34030G35KT M00/M04 A3008 RMK A01 T10031038  RH  077%=      5-min Rain = 0
KAI1 190803Z 34028KT M00/M04 A3008 RMK A01 T10031039  RH  077%=      5-min Rain = 0
KAI1 190804Z 34025G33KT M00/M04 A3008 RMK A01 T10031039  RH  077%=      5-min Rain = 0
KAI1 190805Z 34024KT M00/M04 A3008 RMK A01 T10031038  RH  077%=      5-min Rain = 0
KAI1 190806Z 34025KT M00/M04 A3008 RMK A01 T10041038  RH  077%=      5-min Rain = 0
KAI1 190807Z 34022G27KT M00/M04 A3008 RMK A01 T10041039  RH  078%=      5-min Rain = 0
KAI1 190808Z 34026KT M00/M04 A3008 RMK A01 T10041038  RH  078%=      5-min Rain = 0
KAI1 190809Z 34023KT M00/M04 A3008 RMK A01 T10041038  RH  078%=      5-min Rain = 0
KAI1 190810Z 34020KT M00/M04 A3008 RMK A01 T10041038  RH  078%=      5-min Rain = 0
KAI1 190811Z 34024KT M01/M04 A3008 RMK A01 T10051039  RH  078%=      5-min Rain = 0
KAI1 190812Z 34024KT M01/M04 A3008 RMK A01 T10051038  RH  078%=      5-min Rain = 0
KAI1 190813Z 34023G30KT M01/M04 A3008 RMK A01 T10051038  RH  078%=      5-min Rain = 0
KAI1 190814Z 34026G31KT M01/M04 A3008 RMK A01 T10051039  RH  078%=      5-min Rain = 0
KAI1 190815Z 34023KT M01/M04 A3008 RMK A01 T10051038  RH  078%=      5-min Rain = 0
KAI1 190816Z 34022G27KT M01/M04 A3008 RMK A01 T10051038  RH  078%=      5-min Rain = 0
KAI1 190817Z 34028KT M01/M04 A3008 RMK A01 T10051039  RH  078%=      5-min Rain = 0
KAI1 190818Z 34024KT M01/M04 A3008 RMK A01 T10051039  RH  078%=      5-min Rain = 0
KAI1 190819Z 34020G27KT M01/M04 A3008 RMK A01 T10051039  RH  078%=      5-min Rain = 0
KAI1 190820Z 34024G29KT M01/M04 A3008 RMK A01 T10061038  RH  079%=      5-min Rain = 0
KAI1 190821Z 34026KT M01/M04 A3008 RMK A01 T10061039  RH  078%=      5-min Rain = 0
KAI1 190822Z 34025KT M01/M04 A3008 RMK A01 T10061039  RH  078%=      5-min Rain = 0
KAI1 190823Z 34023KT M01/M04 A3008 RMK A01 T10061039  RH  078%=      5-min Rain = 0
KAI1 190824Z 34025KT M01/M04 A3008 RMK A01 T10061039  RH  078%=      5-min Rain = 0
KAI1 190825Z 34025KT M01/M04 A3008 RMK A01 T10061039  RH  079%=      5-min Rain = 0
KAI1 190826Z 34027KT M01/M04 A3008 RMK A01 T10071039  RH  079%=      5-min Rain = 0
KAI1 190827Z 34025G30KT M01/M04 A3008 RMK A01 T10061039  RH  078%=      5-min Rain = 0
KAI1 190828Z 34025KT M01/M04 A3008 RMK A01 T10061039  RH  078%=      5-min Rain = 0
KAI1 190829Z 34024G29KT M01/M04 A3009 RMK A01 T10071039  RH  079%=      5-min Rain = 0
KAI1 190830Z 34024G29KT M01/M04 A3009 RMK A01 T10071040  RH  079%=      5-min Rain = 0
KAI1 190831Z 34025KT M01/M04 A3009 RMK A01 T10071040  RH  079%=      5-min Rain = 0
KAI1 190832Z 34025KT M01/M04 A3009 RMK A01 T10071040  RH  078%=      5-min Rain = 0
KAI1 190833Z 34021G27KT M01/M04 A3009 RMK A01 T10071041  RH  078%=      5-min Rain = 0
KAI1 190834Z 34025KT M01/M04 A3009 RMK A01 T10081041  RH  078%=      5-min Rain = 0
KAI1 190835Z 34026KT M01/M04 A3009 RMK A01 T10081042  RH  078%=      5-min Rain = 0
KAI1 190836Z 34027KT M01/M04 A3009 RMK A01 T10081042  RH  078%=      5-min Rain = 0
KAI1 190837Z 34027G34KT M01/M04 A3009 RMK A01 T10081043  RH  077%=      5-min Rain = 0
KAI1 190838Z 34027G34KT M01/M05 A3009 RMK A01 T10081045  RH  076%=      5-min Rain = 0
KAI1 190839Z 34024KT M01/M05 A301 RMK A01 T10081045  RH  076%=      5-min Rain = 0
KAI1 190840Z 34028KT M01/M05 A3009 RMK A01 T10091045  RH  076%=      5-min Rain = 0
KAI1 190841Z 34026G33KT M01/M05 A301 RMK A01 T10081046  RH  076%=      5-min Rain = 0
KAI1 190842Z 34027G33KT M01/M05 A301 RMK A01 T10091047  RH  075%=      5-min Rain = 0
KAI1 190843Z 34027G32KT M01/M05 A301 RMK A01 T10091047  RH  075%=      5-min Rain = 0
KAI1 190844Z 34024G29KT M01/M05 A301 RMK A01 T10091047  RH  075%=      5-min Rain = 0
KAI1 190845Z 34026G31KT M01/M05 A301 RMK A01 T10091047  RH  075%=      5-min Rain = 0
KAI1 190846Z 34023KT M01/M05 A301 RMK A01 T10091046  RH  076%=      5-min Rain = 0
KAI1 190847Z 34023KT M01/M05 A3011 RMK A01 T10091046  RH  076%=      5-min Rain = 0
KAI1 190848Z 34023KT M01/M05 A3011 RMK A01 T10101047  RH  076%=      5-min Rain = 0
KAI1 190849Z 34020KT M01/M05 A3011 RMK A01 T10101046  RH  076%=      5-min Rain = 0
KAI1 190850Z 34023KT M01/M05 A3011 RMK A01 T10111046  RH  077%=      5-min Rain = 0
KAI1 190851Z 34024KT M01/M05 A3011 RMK A01 T10101045  RH  077%=      5-min Rain = 0
KAI1 190852Z 34020KT M01/M05 A3011 RMK A01 T10101045  RH  077%=      5-min Rain = 0
KAI1 190853Z 34021KT M01/M05 A3011 RMK A01 T10111045  RH  078%=      5-min Rain = 0
KAI1 190854Z 34019KT M01/M05 A3011 RMK A01 T10111045  RH  078%=      5-min Rain = 0
KAI1 190855Z 34019KT M01/M05 A3011 RMK A01 T10121045  RH  078%=      5-min Rain = 0
KAI1 190856Z 34018KT M01/M05 A3011 RMK A01 T10121045  RH  079%=      5-min Rain = 0
KAI1 190857Z 33019G26KT M01/M04 A3011 RMK A01 T10131044  RH  079%=      5-min Rain = 0
KAI1 190858Z 34022KT M01/M04 A3011 RMK A01 T10121044  RH  079%=      5-min Rain = 0
KAI1 190859Z 34021KT M01/M04 A3011 RMK A01 T10121044  RH  079%=      5-min Rain = 0
KAI1 190900Z 34022KT M01/M04 A3011 RMK A01 T10121044  RH  079%=      5-min Rain = 0
KAI1 190901Z 34019KT M01/M04 A3011 RMK A01 T10121044  RH  079%=      5-min Rain = 0
KAI1 190902Z 34017KT M01/M04 A3011 RMK A01 T10121044  RH  079%=      5-min Rain = 0
KAI1 190903Z 34020KT M01/M04 A3011 RMK A01 T10121043  RH  079%=      5-min Rain = 0
KAI1 190904Z 34021KT M01/M04 A3011 RMK A01 T10121043  RH  079%=      5-min Rain = 0
KAI1 190905Z 34021G26KT M01/M04 A3011 RMK A01 T10121044  RH  079%=      5-min Rain = 0
KAI1 190906Z 34021KT M01/M04 A3011 RMK A01 T10121044  RH  079%=      5-min Rain = 0
KAI1 190907Z 34022KT M01/M04 A3011 RMK A01 T10121044  RH  079%=      5-min Rain = 0
KAI1 190908Z 34021KT M01/M04 A3011 RMK A01 T10121044  RH  079%=      5-min Rain = 0
KAI1 190909Z 34020KT M01/M04 A3012 RMK A01 T10111043  RH  079%=      5-min Rain = 0
KAI1 190910Z 34021KT M01/M04 A3012 RMK A01 T10121044  RH  079%=      5-min Rain = 0
KAI1 190911Z 34022KT M01/M04 A3012 RMK A01 T10121044  RH  079%=      5-min Rain = 0
KAI1 190912Z 34022KT M01/M04 A3012 RMK A01 T10121044  RH  079%=      5-min Rain = 0
KAI1 190913Z 34022KT M01/M04 A3012 RMK A01 T10121044  RH  079%=      5-min Rain = 0
KAI1 190914Z 34022KT M01/M04 A3012 RMK A01 T10121044  RH  079%=      5-min Rain = 0
KAI1 190915Z 34022KT M01/M04 A3012 RMK A01 T10121044  RH  079%=      5-min Rain = 0
KAI1 190916Z 34022KT M01/M04 A3012 RMK A01 T10121044  RH  079%=      5-min Rain = 0
KAI1 190917Z 34025KT M01/M04 A3012 RMK A01 T10121044  RH  079%=      5-min Rain = 0
KAI1 190918Z 34023KT M01/M04 A3012 RMK A01 T10111044  RH  078%=      5-min Rain = 0
KAI1 190919Z 34024G30KT M01/M04 A3012 RMK A01 T10111044  RH  078%=      5-min Rain = 0
KAI1 190920Z 34026G32KT M01/M04 A3012 RMK A01 T10111044  RH  078%=      5-min Rain = 0
KAI1 190921Z 34024G30KT M01/M05 A3012 RMK A01 T10111045  RH  078%=      5-min Rain = 0
KAI1 190922Z 34024KT M01/M04 A3012 RMK A01 T10111044  RH  078%=      5-min Rain = 0
KAI1 190923Z 34021KT M01/M05 A3012 RMK A01 T10121045  RH  078%=      5-min Rain = 0
KAI1 190924Z 34021KT M01/M05 A3012 RMK A01 T10121045  RH  079%=      5-min Rain = 0
KAI1 190925Z 34023G28KT M01/M04 A3012 RMK A01 T10121044  RH  079%=      5-min Rain = 0
KAI1 190926Z 34020KT M01/M04 A3012 RMK A01 T10121044  RH  079%=      5-min Rain = 0
KAI1 190927Z 34022G28KT M01/M04 A3012 RMK A01 T10121044  RH  079%=      5-min Rain = 0
KAI1 190928Z 34020KT M01/M05 A3013 RMK A01 T10131045  RH  079%=      5-min Rain = 0
KAI1 190929Z 33019G24KT M01/M05 A3013 RMK A01 T10131045  RH  079%=      5-min Rain = 0
KAI1 190930Z 33022KT M01/M04 A3012 RMK A01 T10131044  RH  079%=      5-min Rain = 0
KAI1 190931Z 33018KT M01/M04 A3013 RMK A01 T10131044  RH  079%=      5-min Rain = 0
KAI1 190932Z 34019G24KT M01/M04 A3013 RMK A01 T10141044  RH  080%=      5-min Rain = 0
KAI1 190933Z 33018KT M01/M04 A3013 RMK A01 T10141044  RH  080%=      5-min Rain = 0
KAI1 190934Z 33017KT M01/M04 A3013 RMK A01 T10141044  RH  080%=      5-min Rain = 0
KAI1 190935Z 33016KT M02/M04 A3013 RMK A01 T10151044  RH  081%=      5-min Rain = 0
KAI1 190936Z 33017KT M02/M04 A3013 RMK A01 T10161044  RH  081%=      5-min Rain = 0
KAI1 190937Z 33016G21KT M02/M04 A3013 RMK A01 T10161044  RH  081%=      5-min Rain = 0
KAI1 190938Z 32015KT M02/M04 A3013 RMK A01 T10171044  RH  082%=      5-min Rain = 0
KAI1 190939Z 32016KT M02/M04 A3013 RMK A01 T10181044  RH  082%=      5-min Rain = 0
KAI1 190940Z 33019KT M02/M04 A3014 RMK A01 T10181044  RH  083%=      5-min Rain = 0
KAI1 190941Z 33020KT M02/M04 A3013 RMK A01 T10181044  RH  083%=      5-min Rain = 0
KAI1 190942Z 33019KT M02/M04 A3014 RMK A01 T10181044  RH  083%=      5-min Rain = 0
KAI1 190943Z 33020KT M02/M04 A3013 RMK A01 T10181044  RH  082%=      5-min Rain = 0
KAI1 190944Z 33024KT M02/M05 A3014 RMK A01 T10181045  RH  082%=      5-min Rain = 0
KAI1 190945Z 33024KT M02/M05 A3013 RMK A01 T10181046  RH  081%=      5-min Rain = 0
KAI1 190946Z 33021KT M02/M05 A3014 RMK A01 T10171046  RH  081%=      5-min Rain = 0
KAI1 190947Z 33019KT M02/M05 A3014 RMK A01 T10181046  RH  081%=      5-min Rain = 0
KAI1 190948Z 33022KT M02/M05 A3014 RMK A01 T10181047  RH  081%=      5-min Rain = 0
KAI1 190949Z 33022KT M02/M05 A3014 RMK A01 T10181047  RH  081%=      5-min Rain = 0
KAI1 190950Z 33020G26KT M02/M05 A3014 RMK A01 T10181047  RH  081%=      5-min Rain = 0
KAI1 190951Z 33024G29KT M02/M05 A3014 RMK A01 T10191048  RH  081%=      5-min Rain = 0
KAI1 190952Z 33020KT M02/M05 A3015 RMK A01 T10191048  RH  080%=      5-min Rain = 0
KAI1 190953Z 33021G26KT M02/M05 A3014 RMK A01 T10191049  RH  080%=      5-min Rain = 0
KAI1 190954Z 33019KT M02/M05 A3015 RMK A01 T10191049  RH  080%=      5-min Rain = 0
KAI1 190955Z 33021KT M02/M05 A3015 RMK A01 T10191049  RH  080%=      5-min Rain = 0
KAI1 190956Z 33021G27KT M02/M05 A3015 RMK A01 T10201049  RH  080%=      5-min Rain = 0
KAI1 190957Z 33023G28KT M02/M05 A3015 RMK A01 T10201049  RH  080%=      5-min Rain = 0
KAI1 190958Z 33020KT M02/M05 A3015 RMK A01 T10201049  RH  080%=      5-min Rain = 0
KAI1 190959Z 33021G26KT M02/M05 A3015 RMK A01 T10211050  RH  080%=      5-min Rain = 0
KAI1 191000Z 33022KT M02/M05 A3015 RMK A01 T10211050  RH  080%=      5-min Rain = 0
KAI1 191001Z 34019KT M02/M05 A3015 RMK A01 T10211050  RH  080%=      5-min Rain = 0
KAI1 191002Z 34021KT M02/M05 A3015 RMK A01 T10211050  RH  081%=      5-min Rain = 0
KAI1 191003Z 34020KT M02/M05 A3015 RMK A01 T10211050  RH  081%=      5-min Rain = 0
KAI1 191004Z 34020KT M02/M05 A3015 RMK A01 T10211050  RH  080%=      5-min Rain = 0
KAI1 191005Z 34020G25KT M02/M05 A3015 RMK A01 T10211050  RH  080%=      5-min Rain = 0
KAI1 191006Z 34019KT M02/M05 A3015 RMK A01 T10211050  RH  081%=      5-min Rain = 0
KAI1 191007Z 33021G26KT M02/M05 A3015 RMK A01 T10221051  RH  081%=      5-min Rain = 0
KAI1 191008Z 34020G26KT M02/M05 A3015 RMK A01 T10221051  RH  081%=      5-min Rain = 0
KAI1 191009Z 34018KT M02/M05 A3015 RMK A01 T10221051  RH  081%=      5-min Rain = 0
KAI1 191010Z 33018KT M02/M05 A3015 RMK A01 T10221051  RH  081%=      5-min Rain = 0
KAI1 191011Z 33019KT M02/M05 A3015 RMK A01 T10231051  RH  081%=      5-min Rain = 0
KAI1 191012Z 33020KT M02/M05 A3015 RMK A01 T10231051  RH  081%=      5-min Rain = 0
KAI1 191013Z 33019KT M02/M05 A3015 RMK A01 T10231051  RH  081%=      5-min Rain = 0
KAI1 191014Z 33020G27KT M02/M05 A3015 RMK A01 T10231050  RH  081%=      5-min Rain = 0
KAI1 191015Z 33020KT M02/M05 A3015 RMK A01 T10231051  RH  081%=      5-min Rain = 0
KAI1 191016Z 33019G24KT M02/M05 A3015 RMK A01 T10231050  RH  081%=      5-min Rain = 0
KAI1 191017Z 33021KT M02/M05 A3015 RMK A01 T10231051  RH  081%=      5-min Rain = 0
KAI1 191018Z 33019KT M02/M05 A3015 RMK A01 T10231050  RH  081%=      5-min Rain = 0
KAI1 191019Z 33018G25KT M02/M05 A3015 RMK A01 T10231051  RH  081%=      5-min Rain = 0
KAI1 191020Z 33019G24KT M02/M05 A3015 RMK A01 T10231051  RH  082%=      5-min Rain = 0
KAI1 191021Z 34021KT M02/M05 A3015 RMK A01 T10231050  RH  082%=      5-min Rain = 0
KAI1 191022Z 34020KT M02/M05 A3015 RMK A01 T10231051  RH  082%=      5-min Rain = 0
KAI1 191023Z 34018KT M02/M05 A3015 RMK A01 T10231051  RH  081%=      5-min Rain = 0
KAI1 191024Z 34022KT M02/M05 A3015 RMK A01 T10241051  RH  081%=      5-min Rain = 0
KAI1 191025Z 34023KT M02/M05 A3015 RMK A01 T10241051  RH  081%=      5-min Rain = 0
KAI1 191026Z 34021KT M02/M05 A3015 RMK A01 T10231051  RH  081%=      5-min Rain = 0
KAI1 191027Z 34020G25KT M02/M05 A3015 RMK A01 T10231051  RH  081%=      5-min Rain = 0
KAI1 191028Z 33020KT M02/M05 A3015 RMK A01 T10241052  RH  081%=      5-min Rain = 0
KAI1 191029Z 33020G25KT M02/M05 A3016 RMK A01 T10231051  RH  081%=      5-min Rain = 0
KAI1 191030Z 33020G25KT M02/M05 A3016 RMK A01 T10241051  RH  081%=      5-min Rain = 0
KAI1 191031Z 33020KT M02/M05 A3016 RMK A01 T10241051  RH  081%=      5-min Rain = 0
KAI1 191032Z 33019G26KT M02/M05 A3016 RMK A01 T10241051  RH  081%=      5-min Rain = 0
KAI1 191033Z 33018KT M02/M05 A3016 RMK A01 T10241051  RH  082%=      5-min Rain = 0
KAI1 191034Z 33018KT M02/M05 A3016 RMK A01 T10241051  RH  082%=      5-min Rain = 0
KAI1 191035Z 33018KT M03/M05 A3016 RMK A01 T10251051  RH  082%=      5-min Rain = 0
KAI1 191036Z 32020KT M03/M05 A3016 RMK A01 T10251051  RH  082%=      5-min Rain = 0
KAI1 191037Z 33020KT M03/M05 A3016 RMK A01 T10251051  RH  082%=      5-min Rain = 0
KAI1 191038Z 32019KT M03/M05 A3016 RMK A01 T10251051  RH  082%=      5-min Rain = 0
KAI1 191039Z 33017KT M03/M05 A3016 RMK A01 T10251051  RH  082%=      5-min Rain = 0
KAI1 191040Z 33018KT M03/M05 A3016 RMK A01 T10261051  RH  083%=      5-min Rain = 0
KAI1 191041Z 33017KT M03/M05 A3016 RMK A01 T10251051  RH  083%=      5-min Rain = 0
KAI1 191042Z 33016KT M03/M05 A3016 RMK A01 T10261051  RH  083%=      5-min Rain = 0
KAI1 191043Z 32016KT M03/M05 A3016 RMK A01 T10261051  RH  083%=      5-min Rain = 0
KAI1 191044Z 32015KT M03/M05 A3016 RMK A01 T10271051  RH  083%=      5-min Rain = 0
KAI1 191045Z 32017KT M03/M05 A3016 RMK A01 T10271051  RH  084%=      5-min Rain = 0
KAI1 191046Z 32019KT M03/M05 A3017 RMK A01 T10271051  RH  084%=      5-min Rain = 0
KAI1 191047Z 33018KT M03/M05 A3017 RMK A01 T10261050  RH  084%=      5-min Rain = 0
KAI1 191048Z 32016KT M03/M05 A3017 RMK A01 T10261050  RH  083%=      5-min Rain = 0
KAI1 191049Z 32020KT M03/M05 A3017 RMK A01 T10261051  RH  083%=      5-min Rain = 0
KAI1 191050Z 33018KT M03/M05 A3017 RMK A01 T10261051  RH  083%=      5-min Rain = 0
KAI1 191051Z 33015KT M03/M05 A3017 RMK A01 T10261051  RH  083%=      5-min Rain = 0
KAI1 191052Z 33016KT M03/M05 A3017 RMK A01 T10261051  RH  083%=      5-min Rain = 0
KAI1 191053Z 33015KT M03/M05 A3017 RMK A01 T10271051  RH  083%=      5-min Rain = 0
KAI1 191054Z 33017KT M03/M05 A3017 RMK A01 T10271051  RH  083%=      5-min Rain = 0
KAI1 191055Z 33016KT M03/M05 A3017 RMK A01 T10271051  RH  084%=      5-min Rain = 0
KAI1 191056Z 33016KT M03/M05 A3017 RMK A01 T10271051  RH  083%=      5-min Rain = 0
KAI1 191057Z 33016KT M03/M05 A3017 RMK A01 T10271051  RH  083%=      5-min Rain = 0
KAI1 191058Z 33016KT M03/M05 A3017 RMK A01 T10261051  RH  083%=      5-min Rain = 0
KAI1 191059Z 33017KT M03/M05 A3017 RMK A01 T10271051  RH  083%=      5-min Rain = 0
KAI1 191100Z 32015KT M03/M05 A3018 RMK A01 T10271051  RH  083%=      5-min Rain = 0
KAI1 191101Z 32014KT M03/M05 A3018 RMK A01 T10271051  RH  084%=      5-min Rain = 0
KAI1 191102Z 32016KT M03/M05 A3018 RMK A01 T10271051  RH  084%=      5-min Rain = 0
KAI1 191103Z 33016KT M03/M05 A3018 RMK A01 T10271051  RH  084%=      5-min Rain = 0
KAI1 191104Z 32017KT M03/M05 A3018 RMK A01 T10271051  RH  083%=      5-min Rain = 0
KAI1 191105Z 32014KT M03/M05 A3018 RMK A01 T10271051  RH  083%=      5-min Rain = 0
KAI1 191106Z 32014KT M03/M05 A3018 RMK A01 T10271052  RH  083%=      5-min Rain = 0
KAI1 191107Z 32013KT M03/M05 A3019 RMK A01 T10271051  RH  084%=      5-min Rain = 0
KAI1 191108Z 32011KT M03/M05 A3019 RMK A01 T10281052  RH  084%=      5-min Rain = 0
KAI1 191109Z 32014KT M03/M05 A3019 RMK A01 T10281052  RH  084%=      5-min Rain = 0
KAI1 191110Z 33013KT M03/M05 A3019 RMK A01 T10281052  RH  084%=      5-min Rain = 0
KAI1 191111Z 33014KT M03/M05 A3019 RMK A01 T10281051  RH  084%=      5-min Rain = 0
KAI1 191112Z 32013KT M03/M05 A3019 RMK A01 T10281052  RH  084%=      5-min Rain = 0
KAI1 191113Z 33011KT M03/M05 A3019 RMK A01 T10281052  RH  084%=      5-min Rain = 0
KAI1 191114Z 33012KT M03/M05 A3019 RMK A01 T10291052  RH  084%=      5-min Rain = 0
KAI1 191115Z 32013KT M03/M05 A3019 RMK A01 T10291052  RH  084%=      5-min Rain = 0
KAI1 191116Z 33013KT M03/M05 A3018 RMK A01 T10291052  RH  085%=      5-min Rain = 0
KAI1 191117Z 33012KT M03/M05 A3018 RMK A01 T10291051  RH  085%=      5-min Rain = 0
KAI1 191118Z 33012KT M03/M05 A3018 RMK A01 T10291051  RH  085%=      5-min Rain = 0
KAI1 191119Z 33013KT M03/M05 A3018 RMK A01 T10291052  RH  085%=      5-min Rain = 0
KAI1 191120Z 33013KT M03/M05 A3018 RMK A01 T10291052  RH  085%=      5-min Rain = 0
KAI1 191121Z 33012KT M03/M05 A3019 RMK A01 T10291052  RH  084%=      5-min Rain = 0
KAI1 191122Z 33012KT M03/M05 A3019 RMK A01 T10291051  RH  084%=      5-min Rain = 0
KAI1 191123Z 33012KT M03/M05 A3018 RMK A01 T10291052  RH  085%=      5-min Rain = 0
KAI1 191124Z 33012KT M03/M05 A3018 RMK A01 T10291052  RH  085%=      5-min Rain = 0
KAI1 191125Z 33012KT M03/M05 A3019 RMK A01 T10291052  RH  084%=      5-min Rain = 0
KAI1 191126Z 33012KT M03/M05 A3019 RMK A01 T10291052  RH  084%=      5-min Rain = 0
KAI1 191127Z 33013KT M03/M05 A3019 RMK A01 T10291052  RH  084%=      5-min Rain = 0
KAI1 191128Z 33012KT M03/M05 A3019 RMK A01 T10291051  RH  084%=      5-min Rain = 0
KAI1 191129Z 33013KT M03/M05 A3019 RMK A01 T10291051  RH  084%=      5-min Rain = 0
KAI1 191130Z 33012KT M03/M05 A3019 RMK A01 T10291052  RH  084%=      5-min Rain = 0
KAI1 191131Z 33013KT M03/M05 A3019 RMK A01 T10291052  RH  084%=      5-min Rain = 0
KAI1 191132Z 33014KT M03/M05 A3018 RMK A01 T10291051  RH  084%=      5-min Rain = 0
KAI1 191133Z 33012KT M03/M05 A3018 RMK A01 T10281051  RH  084%=      5-min Rain = 0
KAI1 191134Z 33011KT M03/M05 A3019 RMK A01 T10281051  RH  084%=      5-min Rain = 0
KAI1 191135Z 33011KT M03/M05 A3019 RMK A01 T10291052  RH  084%=      5-min Rain = 0
KAI1 191136Z 33012KT M03/M05 A3019 RMK A01 T10301052  RH  085%=      5-min Rain = 0
KAI1 191137Z 33012KT M03/M05 A3018 RMK A01 T10301052  RH  085%=      5-min Rain = 0
KAI1 191138Z 33011KT M03/M05 A3018 RMK A01 T10291051  RH  085%=      5-min Rain = 0
KAI1 191139Z 33011KT M03/M05 A3019 RMK A01 T10291051  RH  085%=      5-min Rain = 0
KAI1 191140Z 34011KT M03/M05 A3018 RMK A01 T10291051  RH  085%=      5-min Rain = 0
KAI1 191141Z 33011KT M03/M05 A3019 RMK A01 T10291051  RH  085%=      5-min Rain = 0
KAI1 191142Z 33012KT M03/M05 A3019 RMK A01 T10291051  RH  085%=      5-min Rain = 0
KAI1 191143Z 33010KT M03/M05 A3019 RMK A01 T10291051  RH  085%=      5-min Rain = 0
KAI1 191144Z 34009KT M03/M05 A3019 RMK A01 T10291051  RH  085%=      5-min Rain = 0
KAI1 191145Z 33010KT M03/M05 A3019 RMK A01 T10291051  RH  085%=      5-min Rain = 0
KAI1 191146Z 34009KT M03/M05 A3019 RMK A01 T10301051  RH  085%=      5-min Rain = 0
KAI1 191147Z 34011KT M03/M05 A3019 RMK A01 T10301051  RH  085%=      5-min Rain = 0
KAI1 191148Z 34010KT M03/M05 A3019 RMK A01 T10301051  RH  085%=      5-min Rain = 0
KAI1 191149Z 34010KT M03/M05 A3019 RMK A01 T10291051  RH  085%=      5-min Rain = 0
KAI1 191150Z 34010KT M03/M05 A3019 RMK A01 T10291051  RH  085%=      5-min Rain = 0
KAI1 191151Z 34012KT M03/M05 A3019 RMK A01 T10301051  RH  085%=      5-min Rain = 0
KAI1 191152Z 34012KT M03/M05 A3019 RMK A01 T10291050  RH  085%=      5-min Rain = 0
KAI1 191153Z 34011KT M03/M05 A3019 RMK A01 T10281050  RH  085%=      5-min Rain = 0
KAI1 191154Z 34010KT M03/M05 A3019 RMK A01 T10281050  RH  085%=      5-min Rain = 0
KAI1 191155Z 35012KT M03/M05 A3019 RMK A01 T10281050  RH  085%=      5-min Rain = 0
KAI1 191156Z 34010KT M03/M05 A3019 RMK A01 T10281050  RH  085%=      5-min Rain = 0
KAI1 191157Z 34012KT M03/M05 A3018 RMK A01 T10281050  RH  085%=      5-min Rain = 0
KAI1 191158Z 34012KT M03/M05 A3019 RMK A01 T10291050  RH  085%=      5-min Rain = 0
KAI1 191159Z 34012KT M03/M05 A3019 RMK A01 T10281050  RH  085%=      5-min Rain = 0
KAI1 191200Z 35011KT M03/M05 A3019 RMK A01 T10271049  RH  085%=      5-min Rain = 0
KAI1 191201Z 34011KT M03/M05 A3019 RMK A01 T10271050  RH  085%=      5-min Rain = 0
KAI1 191202Z 34015KT M03/M05 A3019 RMK A01 T10281050  RH  085%=      5-min Rain = 0
KAI1 191203Z 35014KT M03/M05 A3019 RMK A01 T10271049  RH  085%=      5-min Rain = 0
KAI1 191204Z 34013KT M03/M05 A3019 RMK A01 T10261049  RH  085%=      5-min Rain = 0
KAI1 191205Z 34012KT M03/M05 A3019 RMK A01 T10271049  RH  084%=      5-min Rain = 0
KAI1 191206Z 34013KT M03/M05 A3019 RMK A01 T10271049  RH  085%=      5-min Rain = 0
KAI1 191207Z 34013KT M03/M05 A3019 RMK A01 T10271049  RH  085%=      5-min Rain = 0
KAI1 191208Z 34014KT M03/M05 A3019 RMK A01 T10271049  RH  085%=      5-min Rain = 0
KAI1 191209Z 34014KT M03/M05 A3019 RMK A01 T10261049  RH  085%=      5-min Rain = 0
KAI1 191210Z 34015KT M03/M05 A3019 RMK A01 T10261049  RH  084%=      5-min Rain = 0
KAI1 191211Z 34015KT M03/M05 A3019 RMK A01 T10261049  RH  084%=      5-min Rain = 0
KAI1 191212Z 34016KT M03/M05 A3019 RMK A01 T10251049  RH  084%=      5-min Rain = 0
KAI1 191213Z 34014KT M03/M05 A3019 RMK A01 T10251048  RH  084%=      5-min Rain = 0
KAI1 191214Z 34016KT M03/M05 A3019 RMK A01 T10251049  RH  084%=      5-min Rain = 0
KAI1 191215Z 34016KT M03/M05 A3019 RMK A01 T10251049  RH  084%=      5-min Rain = 0
KAI1 191216Z 33013KT M03/M05 A3019 RMK A01 T10251048  RH  084%=      5-min Rain = 0
KAI1 191217Z 33013KT M03/M05 A3019 RMK A01 T10251049  RH  084%=      5-min Rain = 0
KAI1 191218Z 34014KT M03/M05 A3019 RMK A01 T10261049  RH  084%=      5-min Rain = 0
KAI1 191219Z 34013KT M03/M05 A3019 RMK A01 T10261049  RH  084%=      5-min Rain = 0
KAI1 191220Z 34013KT M03/M05 A3019 RMK A01 T10261049  RH  084%=      5-min Rain = 0
KAI1 191221Z 34016KT M03/M05 A3019 RMK A01 T10261049  RH  084%=      5-min Rain = 0
KAI1 191222Z 33017KT M03/M05 A3019 RMK A01 T10261048  RH  084%=      5-min Rain = 0
KAI1 191223Z 34015KT M03/M05 A3019 RMK A01 T10251048  RH  084%=      5-min Rain = 0
KAI1 191224Z 33014KT M02/M05 A3019 RMK A01 T10241048  RH  084%=      5-min Rain = 0
KAI1 191225Z 33016KT M03/M05 A3019 RMK A01 T10251048  RH  084%=      5-min Rain = 0
KAI1 191226Z 34015KT M03/M05 A3019 RMK A01 T10251048  RH  084%=      5-min Rain = 0
KAI1 191227Z 33015KT M03/M05 A3019 RMK A01 T10251049  RH  084%=      5-min Rain = 0
KAI1 191228Z 33014KT M03/M05 A3019 RMK A01 T10251048  RH  084%=      5-min Rain = 0
KAI1 191229Z 33014KT M03/M05 A3019 RMK A01 T10251049  RH  084%=      5-min Rain = 0
KAI1 191230Z 33015KT M03/M05 A3019 RMK A01 T10261049  RH  084%=      5-min Rain = 0
KAI1 191231Z 33015KT M03/M05 A3019 RMK A01 T10261049  RH  084%=      5-min Rain = 0
KAI1 191232Z 33014KT M03/M05 A302 RMK A01 T10251049  RH  084%=      5-min Rain = 0
KAI1 191233Z 33013KT M03/M05 A302 RMK A01 T10261049  RH  084%=      5-min Rain = 0
KAI1 191234Z 33012KT M03/M05 A302 RMK A01 T10261049  RH  084%=      5-min Rain = 0
KAI1 191235Z 33012KT M03/M05 A302 RMK A01 T10271049  RH  084%=      5-min Rain = 0
KAI1 191236Z 33013KT M03/M05 A302 RMK A01 T10271049  RH  085%=      5-min Rain = 0
KAI1 191237Z 33013KT M03/M05 A302 RMK A01 T10271049  RH  085%=      5-min Rain = 0
KAI1 191238Z 34013KT M03/M05 A302 RMK A01 T10271049  RH  085%=      5-min Rain = 0
KAI1 191239Z 33012KT M03/M05 A302 RMK A01 T10271049  RH  085%=      5-min Rain = 0
KAI1 191240Z 33014KT M03/M05 A302 RMK A01 T10271049  RH  085%=      5-min Rain = 0
KAI1 191241Z 33013KT M03/M05 A302 RMK A01 T10271049  RH  085%=      5-min Rain = 0
KAI1 191242Z 34014KT M03/M05 A302 RMK A01 T10271049  RH  085%=      5-min Rain = 0
KAI1 191243Z 33012KT M03/M05 A302 RMK A01 T10271050  RH  085%=      5-min Rain = 0
KAI1 191244Z 33012KT M03/M05 A302 RMK A01 T10271050  RH  085%=      5-min Rain = 0
KAI1 191245Z 33014KT M03/M05 A302 RMK A01 T10271049  RH  085%=      5-min Rain = 0
KAI1 191246Z 33014KT M03/M05 A3021 RMK A01 T10271049  RH  085%=      5-min Rain = 0
KAI1 191247Z 33014KT M03/M05 A3021 RMK A01 T10271049  RH  085%=      5-min Rain = 0
KAI1 191248Z 33013KT M03/M05 A3021 RMK A01 T10271049  RH  085%=      5-min Rain = 0
KAI1 191249Z 34012KT M03/M05 A3021 RMK A01 T10271050  RH  085%=      5-min Rain = 0
KAI1 191250Z 34013G18KT M03/M05 A3021 RMK A01 T10281050  RH  085%=      5-min Rain = 0
KAI1 191251Z 33014KT M03/M05 A3021 RMK A01 T10281050  RH  085%=      5-min Rain = 0
KAI1 191252Z 33011KT M03/M05 A3021 RMK A01 T10281050  RH  085%=      5-min Rain = 0
KAI1 191253Z 33013KT M03/M05 A3021 RMK A01 T10281050  RH  085%=      5-min Rain = 0
KAI1 191254Z 34012KT M03/M05 A3021 RMK A01 T10281050  RH  085%=      5-min Rain = 0
KAI1 191255Z 33012KT M03/M05 A3021 RMK A01 T10281050  RH  085%=      5-min Rain = 0
KAI1 191256Z 33012KT M03/M05 A3021 RMK A01 T10281050  RH  085%=      5-min Rain = 0
KAI1 191257Z 33011KT M03/M05 A3022 RMK A01 T10291050  RH  085%=      5-min Rain = 0
KAI1 191258Z 33013KT M03/M05 A3022 RMK A01 T10291050  RH  085%=      5-min Rain = 0
KAI1 191259Z 33013KT M03/M05 A3021 RMK A01 T10291050  RH  086%=      5-min Rain = 0
KAI1 191300Z 33014KT M03/M05 A3021 RMK A01 T10291050  RH  085%=      5-min Rain = 0
KAI1 191301Z 33013KT M03/M05 A3022 RMK A01 T10281050  RH  085%=      5-min Rain = 0
KAI1 191302Z 34012KT M03/M05 A3022 RMK A01 T10291050  RH  085%=      5-min Rain = 0
KAI1 191303Z 34013KT M03/M05 A3022 RMK A01 T10281050  RH  085%=      5-min Rain = 0
KAI1 191304Z 33012KT M03/M05 A3022 RMK A01 T10291050  RH  085%=      5-min Rain = 0
KAI1 191305Z 33012KT M03/M05 A3022 RMK A01 T10291050  RH  085%=      5-min Rain = 0
KAI1 191306Z 33013KT M03/M05 A3022 RMK A01 T10291051  RH  085%=      5-min Rain = 0
KAI1 191307Z 33013KT M03/M05 A3022 RMK A01 T10291050  RH  085%=      5-min Rain = 0
KAI1 191308Z 33013KT M03/M05 A3022 RMK A01 T10281050  RH  085%=      5-min Rain = 0
KAI1 191309Z 34014KT M03/M05 A3022 RMK A01 T10291050  RH  085%=      5-min Rain = 0
KAI1 191310Z 34012KT M03/M05 A3022 RMK A01 T10291051  RH  085%=      5-min Rain = 0
KAI1 191311Z 33013KT M03/M05 A3022 RMK A01 T10291051  RH  085%=      5-min Rain = 0
KAI1 191312Z 34013KT M03/M05 A3022 RMK A01 T10291051  RH  085%=      5-min Rain = 0
KAI1 191313Z 33012KT M03/M05 A3022 RMK A01 T10281050  RH  085%=      5-min Rain = 0
KAI1 191314Z 33013KT M03/M05 A3022 RMK A01 T10291051  RH  085%=      5-min Rain = 0
KAI1 191315Z 34012KT M03/M05 A3022 RMK A01 T10291051  RH  085%=      5-min Rain = 0
KAI1 191316Z 34013KT M03/M05 A3022 RMK A01 T10291051  RH  085%=      5-min Rain = 0
KAI1 191317Z 34013KT M03/M05 A3022 RMK A01 T10291051  RH  085%=      5-min Rain = 0
KAI1 191318Z 34013KT M03/M05 A3022 RMK A01 T10291051  RH  085%=      5-min Rain = 0
KAI1 191319Z 34011KT M03/M05 A3022 RMK A01 T10291051  RH  085%=      5-min Rain = 0
KAI1 191320Z 34012KT M03/M05 A3023 RMK A01 T10301052  RH  085%=      5-min Rain = 0
KAI1 191321Z 34011KT M03/M05 A3022 RMK A01 T10301051  RH  085%=      5-min Rain = 0
KAI1 191322Z 33011KT M03/M05 A3023 RMK A01 T10301052  RH  085%=      5-min Rain = 0
KAI1 191323Z 34011KT M03/M05 A3023 RMK A01 T10311052  RH  085%=      5-min Rain = 0
KAI1 191324Z 33011KT M03/M05 A3023 RMK A01 T10311052  RH  086%=      5-min Rain = 0
KAI1 191325Z 33011KT M03/M05 A3023 RMK A01 T10311052  RH  086%=      5-min Rain = 0
KAI1 191326Z 33011KT M03/M05 A3023 RMK A01 T10321052  RH  086%=      5-min Rain = 0
KAI1 191327Z 33011KT M03/M05 A3023 RMK A01 T10321052  RH  086%=      5-min Rain = 0
KAI1 191328Z 33011KT M03/M05 A3023 RMK A01 T10321052  RH  086%=      5-min Rain = 0
KAI1 191329Z 33011KT M03/M05 A3023 RMK A01 T10321052  RH  086%=      5-min Rain = 0
KAI1 191330Z 33010KT M03/M05 A3023 RMK A01 T10321052  RH  086%=      5-min Rain = 0
KAI1 191331Z 33010KT M03/M05 A3023 RMK A01 T10321053  RH  086%=      5-min Rain = 0
KAI1 191332Z 33010KT M03/M05 A3023 RMK A01 T10331053  RH  086%=      5-min Rain = 0
KAI1 191333Z 33009KT M03/M05 A3023 RMK A01 T10331053  RH  086%=      5-min Rain = 0
KAI1 191334Z 32008KT M03/M05 A3023 RMK A01 T10331053  RH  086%=      5-min Rain = 0
KAI1 191335Z 32008KT M03/M05 A3023 RMK A01 T10341054  RH  087%=      5-min Rain = 0
KAI1 191336Z 32008KT M04/M05 A3024 RMK A01 T10351054  RH  087%=      5-min Rain = 0
KAI1 191337Z 31008KT M04/M05 A3024 RMK A01 T10351053  RH  087%=      5-min Rain = 0
KAI1 191338Z 31008KT M04/M05 A3024 RMK A01 T10361054  RH  087%=      5-min Rain = 0
KAI1 191339Z 31006KT M04/M06 A3024 RMK A01 T10371055  RH  087%=      5-min Rain = 0
KAI1 191340Z 31006KT M04/M06 A3024 RMK A01 T10381055  RH  087%=      5-min Rain = 0
KAI1 191341Z 31006KT M04/M06 A3024 RMK A01 T10381056  RH  088%=      5-min Rain = 0
KAI1 191342Z 31006KT M04/M06 A3024 RMK A01 T10391056  RH  088%=      5-min Rain = 0
KAI1 191343Z 31006KT M04/M06 A3024 RMK A01 T10401056  RH  088%=      5-min Rain = 0
KAI1 191344Z 31006KT M04/M06 A3024 RMK A01 T10411057  RH  088%=      5-min Rain = 0
KAI1 191345Z 31006KT M04/M06 A3024 RMK A01 T10411057  RH  089%=      5-min Rain = 0
KAI1 191346Z 31006KT M04/M06 A3024 RMK A01 T10411057  RH  089%=      5-min Rain = 0
KAI1 191347Z 31007KT M04/M06 A3024 RMK A01 T10411057  RH  089%=      5-min Rain = 0
KAI1 191348Z 32007KT M04/M06 A3024 RMK A01 T10421057  RH  089%=      5-min Rain = 0
KAI1 191349Z 31008KT M04/M06 A3024 RMK A01 T10421057  RH  089%=      5-min Rain = 0
KAI1 191350Z 31007KT M04/M06 A3024 RMK A01 T10421057  RH  089%=      5-min Rain = 0
KAI1 191351Z 32009KT M04/M06 A3024 RMK A01 T10421057  RH  089%=      5-min Rain = 0
KAI1 191352Z 32009KT M04/M06 A3024 RMK A01 T10411056  RH  089%=      5-min Rain = 0
KAI1 191353Z 32009KT M04/M06 A3024 RMK A01 T10421057  RH  089%=      5-min Rain = 0
KAI1 191354Z 32009KT M04/M06 A3024 RMK A01 T10421057  RH  089%=      5-min Rain = 0
KAI1 191355Z 32009KT M04/M06 A3024 RMK A01 T10421057  RH  089%=      5-min Rain = 0
KAI1 191356Z 32008KT M04/M06 A3024 RMK A01 T10411056  RH  089%=      5-min Rain = 0
KAI1 191357Z 32008KT M04/M06 A3024 RMK A01 T10411056  RH  089%=      5-min Rain = 0
KAI1 191358Z 32008KT M04/M06 A3024 RMK A01 T10411056  RH  089%=      5-min Rain = 0
KAI1 191359Z 32008KT M04/M06 A3024 RMK A01 T10411056  RH  089%=      5-min Rain = 0
KAI1 191400Z 32008KT M04/M06 A3025 RMK A01 T10411057  RH  089%=      5-min Rain = 0
KAI1 191401Z 32007KT M04/M06 A3025 RMK A01 T10411057  RH  089%=      5-min Rain = 0
KAI1 191402Z 32008KT M04/M06 A3025 RMK A01 T10421057  RH  089%=      5-min Rain = 0
KAI1 191403Z 32008KT M04/M06 A3025 RMK A01 T10411056  RH  090%=      5-min Rain = 0
KAI1 191404Z 32008KT M04/M06 A3025 RMK A01 T10421056  RH  090%=      5-min Rain = 0
KAI1 191405Z 32008KT M04/M06 A3025 RMK A01 T10411056  RH  089%=      5-min Rain = 0
KAI1 191406Z 32008KT M04/M06 A3025 RMK A01 T10411056  RH  089%=      5-min Rain = 0
KAI1 191407Z 32008KT M04/M06 A3025 RMK A01 T10411056  RH  089%=      5-min Rain = 0
KAI1 191408Z 32008KT M04/M06 A3025 RMK A01 T10411057  RH  089%=      5-min Rain = 0
KAI1 191409Z 32008KT M04/M06 A3025 RMK A01 T10411057  RH  089%=      5-min Rain = 0
KAI1 191410Z 32009KT M04/M06 A3025 RMK A01 T10401057  RH  089%=      5-min Rain = 0
KAI1 191411Z 33009KT M04/M06 A3025 RMK A01 T10401056  RH  089%=      5-min Rain = 0
KAI1 191412Z 32008KT M04/M06 A3025 RMK A01 T10401056  RH  088%=      5-min Rain = 0
KAI1 191413Z 33009KT M04/M06 A3025 RMK A01 T10391056  RH  088%=      5-min Rain = 0
KAI1 191414Z 33009KT M04/M06 A3026 RMK A01 T10391056  RH  088%=      5-min Rain = 0
KAI1 191415Z 33009KT M04/M06 A3026 RMK A01 T10381055  RH  088%=      5-min Rain = 0
KAI1 191416Z 32008KT M04/M06 A3026 RMK A01 T10381055  RH  088%=      5-min Rain = 0
KAI1 191417Z 32009KT M04/M06 A3026 RMK A01 T10381055  RH  088%=      5-min Rain = 0
KAI1 191418Z 33008KT M04/M06 A3026 RMK A01 T10371055  RH  088%=      5-min Rain = 0
KAI1 191419Z 33009KT M04/M05 A3026 RMK A01 T10371054  RH  088%=      5-min Rain = 0
KAI1 191420Z 33009KT M04/M05 A3026 RMK A01 T10371054  RH  088%=      5-min Rain = 0
KAI1 191421Z 32009KT M04/M05 A3026 RMK A01 T10361054  RH  087%=      5-min Rain = 0
KAI1 191422Z 32009KT M04/M05 A3026 RMK A01 T10361054  RH  087%=      5-min Rain = 0
KAI1 191423Z 32009KT M04/M05 A3026 RMK A01 T10351054  RH  087%=      5-min Rain = 0
KAI1 191424Z 32009KT M04/M05 A3026 RMK A01 T10351053  RH  087%=      5-min Rain = 0
KAI1 191425Z 32009KT M04/M05 A3026 RMK A01 T10351054  RH  087%=      5-min Rain = 0
KAI1 191426Z 32009KT M04/M05 A3026 RMK A01 T10351054  RH  087%=      5-min Rain = 0
KAI1 191427Z 32009KT M03/M05 A3026 RMK A01 T10341054  RH  087%=      5-min Rain = 0
KAI1 191428Z 32010KT M03/M05 A3026 RMK A01 T10341053  RH  087%=      5-min Rain = 0
KAI1 191429Z 32010KT M03/M05 A3026 RMK A01 T10341053  RH  086%=      5-min Rain = 0
KAI1 191430Z 32010KT M03/M05 A3026 RMK A01 T10341053  RH  086%=      5-min Rain = 0
KAI1 191431Z 32008KT M03/M05 A3026 RMK A01 T10331053  RH  086%=      5-min Rain = 0
KAI1 191432Z 32010KT M03/M05 A3026 RMK A01 T10331053  RH  086%=      5-min Rain = 0
KAI1 191433Z 32010KT M03/M05 A3026 RMK A01 T10321053  RH  086%=      5-min Rain = 0
KAI1 191434Z 32011KT M03/M05 A3026 RMK A01 T10321052  RH  086%=      5-min Rain = 0
KAI1 191435Z 32011KT M03/M05 A3027 RMK A01 T10311052  RH  086%=      5-min Rain = 0
KAI1 191436Z 32010KT M03/M05 A3027 RMK A01 T10311052  RH  085%=      5-min Rain = 0
KAI1 191437Z 32012KT M03/M05 A3027 RMK A01 T10301051  RH  085%=      5-min Rain = 0
KAI1 191438Z 32012KT M03/M05 A3027 RMK A01 T10291051  RH  085%=      5-min Rain = 0
KAI1 191439Z 33011KT M03/M05 A3027 RMK A01 T10291051  RH  084%=      5-min Rain = 0
KAI1 191440Z 32011KT M03/M05 A3027 RMK A01 T10281051  RH  084%=      5-min Rain = 0
KAI1 191441Z 33011KT M03/M05 A3027 RMK A01 T10281051  RH  084%=      5-min Rain = 0
KAI1 191442Z 33012KT M03/M05 A3027 RMK A01 T10271050  RH  084%=      5-min Rain = 0
KAI1 191443Z 33011KT M03/M05 A3027 RMK A01 T10271051  RH  084%=      5-min Rain = 0
KAI1 191444Z 33012KT M03/M05 A3027 RMK A01 T10271050  RH  084%=      5-min Rain = 0
KAI1 191445Z 33011KT M03/M05 A3027 RMK A01 T10261050  RH  084%=      5-min Rain = 0
KAI1 191446Z 33011KT M03/M05 A3027 RMK A01 T10261050  RH  084%=      5-min Rain = 0
KAI1 191447Z 33011KT M03/M05 A3027 RMK A01 T10251050  RH  083%=      5-min Rain = 0
KAI1 191448Z 33012KT M03/M05 A3027 RMK A01 T10251049  RH  083%=      5-min Rain = 0
KAI1 191449Z 33013KT M03/M05 A3027 RMK A01 T10251049  RH  083%=      5-min Rain = 0
KAI1 191450Z 33013KT M02/M05 A3027 RMK A01 T10241050  RH  083%=      5-min Rain = 0
KAI1 191451Z 33013KT M02/M05 A3027 RMK A01 T10241050  RH  082%=      5-min Rain = 0
KAI1 191452Z 33014KT M02/M05 A3027 RMK A01 T10241050  RH  082%=      5-min Rain = 0
KAI1 191453Z 33011KT M02/M05 A3027 RMK A01 T10231049  RH  082%=      5-min Rain = 0
KAI1 191454Z 34013KT M02/M05 A3027 RMK A01 T10221048  RH  083%=      5-min Rain = 0
KAI1 191455Z 34014KT M02/M05 A3027 RMK A01 T10221048  RH  082%=      5-min Rain = 0
KAI1 191456Z 33013KT M02/M05 A3027 RMK A01 T10221049  RH  082%=      5-min Rain = 0
KAI1 191457Z 33015KT M02/M05 A3027 RMK A01 T10211048  RH  082%=      5-min Rain = 0
KAI1 191458Z 34013KT M02/M05 A3027 RMK A01 T10201047  RH  082%=      5-min Rain = 0
KAI1 191459Z 34013KT M02/M05 A3027 RMK A01 T10201047  RH  082%=      5-min Rain = 0
KAI1 191500Z 33013KT M02/M05 A3028 RMK A01 T10191047  RH  082%=      5-min Rain = 0
KAI1 191501Z 34013KT M02/M05 A3028 RMK A01 T10201048  RH  081%=      5-min Rain = 0
KAI1 191502Z 33011KT M02/M05 A3028 RMK A01 T10191047  RH  081%=      5-min Rain = 0
KAI1 191503Z 33012KT M02/M05 A3028 RMK A01 T10191046  RH  081%=      5-min Rain = 0
KAI1 191504Z 34013KT M02/M05 A3028 RMK A01 T10181046  RH  081%=      5-min Rain = 0
KAI1 191505Z 33014KT M02/M05 A3028 RMK A01 T10181046  RH  081%=      5-min Rain = 0
KAI1 191506Z 33015KT M02/M05 A3028 RMK A01 T10171046  RH  081%=      5-min Rain = 0
KAI1 191507Z 33015KT M02/M05 A3028 RMK A01 T10171047  RH  080%=      5-min Rain = 0
KAI1 191508Z 34016KT M02/M05 A3028 RMK A01 T10171047  RH  080%=      5-min Rain = 0
KAI1 191509Z 33014KT M02/M05 A3028 RMK A01 T10171047  RH  080%=      5-min Rain = 0
KAI1 191510Z 33013KT M02/M05 A3028 RMK A01 T10171047  RH  080%=      5-min Rain = 0
KAI1 191511Z 33012KT M02/M05 A3028 RMK A01 T10171046  RH  080%=      5-min Rain = 0
KAI1 191512Z 33014KT M02/M04 A3028 RMK A01 T10161044  RH  081%=      5-min Rain = 0
KAI1 191513Z 34015KT M02/M05 A3028 RMK A01 T10151045  RH  080%=      5-min Rain = 0
KAI1 191514Z 34014KT M02/M05 A3029 RMK A01 T10151046  RH  080%=      5-min Rain = 0
KAI1 191515Z 34015KT M02/M05 A3029 RMK A01 T10151046  RH  080%=      5-min Rain = 0
KAI1 191516Z 34016KT M02/M05 A3029 RMK A01 T10151046  RH  080%=      5-min Rain = 0
KAI1 191517Z 34015KT M02/M05 A3029 RMK A01 T10151045  RH  080%=      5-min Rain = 0
KAI1 191518Z 34015KT M01/M05 A3029 RMK A01 T10141045  RH  080%=      5-min Rain = 0
KAI1 191519Z 34014KT M01/M04 A3029 RMK A01 T10141044  RH  080%=      5-min Rain = 0
KAI1 191520Z 34017KT M01/M05 A3029 RMK A01 T10131045  RH  079%=      5-min Rain = 0
KAI1 191521Z 34017KT M01/M05 A3029 RMK A01 T10131045  RH  079%=      5-min Rain = 0
KAI1 191522Z 34016KT M01/M04 A3029 RMK A01 T10121044  RH  079%=      5-min Rain = 0
KAI1 191523Z 34016KT M01/M04 A3029 RMK A01 T10111043  RH  079%=      5-min Rain = 0
KAI1 191524Z 34016KT M01/M04 A3029 RMK A01 T10111044  RH  078%=      5-min Rain = 0
KAI1 191525Z 34015KT M01/M04 A3029 RMK A01 T10101043  RH  078%=      5-min Rain = 0
KAI1 191526Z 34015KT M01/M04 A3029 RMK A01 T10091042  RH  078%=      5-min Rain = 0
KAI1 191527Z 34015KT M01/M04 A3029 RMK A01 T10091042  RH  078%=      5-min Rain = 0
KAI1 191528Z 34016KT M01/M04 A3029 RMK A01 T10081041  RH  078%=      5-min Rain = 0
KAI1 191529Z 34016KT M01/M04 A3029 RMK A01 T10071042  RH  077%=      5-min Rain = 0
KAI1 191530Z 35017KT M01/M04 A3029 RMK A01 T10071043  RH  077%=      5-min Rain = 0
KAI1 191531Z 34015KT M01/M04 A303 RMK A01 T10071043  RH  076%=      5-min Rain = 0
KAI1 191532Z 35014KT M01/M04 A303 RMK A01 T10051041  RH  077%=      5-min Rain = 0
KAI1 191533Z 34013KT M00/M04 A303 RMK A01 T10041040  RH  077%=      5-min Rain = 0
KAI1 191534Z 35016KT M00/M04 A303 RMK A01 T10031040  RH  076%=      5-min Rain = 0
KAI1 191535Z 35016KT M00/M04 A303 RMK A01 T10041042  RH  076%=      5-min Rain = 0
KAI1 191536Z 35017KT M00/M04 A303 RMK A01 T10031042  RH  075%=      5-min Rain = 0
KAI1 191537Z 35015KT M00/M04 A303 RMK A01 T10031041  RH  075%=      5-min Rain = 0
KAI1 191538Z 35017KT M00/M04 A303 RMK A01 T10021041  RH  075%=      5-min Rain = 0
KAI1 191539Z 35016KT M00/M04 A303 RMK A01 T10011040  RH  075%=      5-min Rain = 0
KAI1 191540Z 35012KT M00/M04 A303 RMK A01 T10011041  RH  075%=      5-min Rain = 0
KAI1 191541Z 36016KT 00/04 A303 RMK A01 T00000-38  RH  075%=      5-min Rain = 0
KAI1 191542Z 35015KT 00/M04 A303 RMK A01 T00011040  RH  074%=      5-min Rain = 0
KAI1 191543Z 35015KT 00/M04 A303 RMK A01 T00011039  RH  074%=      5-min Rain = 0
KAI1 191544Z 35014KT 00/M04 A303 RMK A01 T00031037  RH  074%=      5-min Rain = 0
KAI1 191545Z 35016KT 00/M04 A303 RMK A01 T00041037  RH  074%=      5-min Rain = 0
KAI1 191546Z 34015KT 00/M04 A303 RMK A01 T00031040  RH  073%=      5-min Rain = 0
KAI1 191547Z 35014KT 00/M04 A303 RMK A01 T00041036  RH  074%=      5-min Rain = 0
KAI1 191548Z 34015KT 01/M04 A303 RMK A01 T00061036  RH  074%=      5-min Rain = 0
KAI1 191549Z 35016KT 01/M04 A303 RMK A01 T00061038  RH  073%=      5-min Rain = 0
KAI1 191550Z 35020KT 01/M04 A303 RMK A01 T00051039  RH  072%=      5-min Rain = 0
KAI1 191551Z 35019KT 00/M04 A303 RMK A01 T00041041  RH  072%=      5-min Rain = 0
KAI1 191552Z 35018KT 00/M04 A303 RMK A01 T00031041  RH  072%=      5-min Rain = 0
KAI1 191553Z 35016G22KT 00/M04 A303 RMK A01 T00031040  RH  072%=      5-min Rain = 0
KAI1 191554Z 35018KT 00/M04 A303 RMK A01 T00041038  RH  073%=      5-min Rain = 0
KAI1 191555Z 35019KT 01/M04 A303 RMK A01 T00051040  RH  072%=      5-min Rain = 0
KAI1 191556Z 35018KT 01/M04 A303 RMK A01 T00051040  RH  072%=      5-min Rain = 0
KAI1 191557Z 35019KT 01/M04 A303 RMK A01 T00051040  RH  072%=      5-min Rain = 0
KAI1 191558Z 35015KT 01/M04 A303 RMK A01 T00051040  RH  072%=      5-min Rain = 0
KAI1 191559Z 35017KT 01/M04 A303 RMK A01 T00061037  RH  073%=      5-min Rain = 0
KAI1 191600Z 35016KT 01/M04 A303 RMK A01 T00071036  RH  073%=      5-min Rain = 0
KAI1 191601Z 35017KT 01/M04 A303 RMK A01 T00081036  RH  072%=      5-min Rain = 0
KAI1 191602Z 34016KT 01/M04 A303 RMK A01 T00081037  RH  072%=      5-min Rain = 0
KAI1 191603Z 34016KT 01/M04 A303 RMK A01 T00081038  RH  071%=      5-min Rain = 0
KAI1 191604Z 34017KT 01/M04 A303 RMK A01 T00081038  RH  071%=      5-min Rain = 0
KAI1 191605Z 35016KT 01/M04 A303 RMK A01 T00081037  RH  072%=      5-min Rain = 0
KAI1 191606Z 35018KT 01/M04 A303 RMK A01 T00091037  RH  071%=      5-min Rain = 0
KAI1 191607Z 35015KT 01/M04 A303 RMK A01 T00091037  RH  071%=      5-min Rain = 0
KAI1 191608Z 34015KT 01/M03 A303 RMK A01 T00101034  RH  072%=      5-min Rain = 0
KAI1 191609Z 35016KT 01/M04 A303 RMK A01 T00121035  RH  071%=      5-min Rain = 0
KAI1 191610Z 35018KT 01/M04 A3031 RMK A01 T00121035  RH  071%=      5-min Rain = 0
KAI1 191611Z 35017KT 01/M04 A303 RMK A01 T00121036  RH  071%=      5-min Rain = 0
KAI1 191612Z 35016KT 01/M04 A3031 RMK A01 T00121036  RH  070%=      5-min Rain = 0
KAI1 191613Z 34015KT 01/M04 A303 RMK A01 T00121036  RH  070%=      5-min Rain = 0
KAI1 191614Z 34016KT 01/M04 A3031 RMK A01 T00131035  RH  071%=      5-min Rain = 0
KAI1 191615Z 35015KT 02/M03 A3031 RMK A01 T00151033  RH  071%=      5-min Rain = 0
KAI1 191616Z 35016KT 02/M03 A3031 RMK A01 T00151033  RH  070%=      5-min Rain = 0
KAI1 191617Z 35019KT 02/M04 A3031 RMK A01 T00151035  RH  069%=      5-min Rain = 0
KAI1 191618Z 35016KT 01/M04 A3031 RMK A01 T00141037  RH  069%=      5-min Rain = 0
KAI1 191619Z 35017KT 01/M04 A3031 RMK A01 T00141036  RH  069%=      5-min Rain = 0
KAI1 191620Z 35015KT 01/M04 A3031 RMK A01 T00141036  RH  069%=      5-min Rain = 0
KAI1 191621Z 35014KT 01/M04 A3031 RMK A01 T00141035  RH  070%=      5-min Rain = 0
KAI1 191622Z 34017KT 02/M03 A3031 RMK A01 T00161032  RH  070%=      5-min Rain = 0
KAI1 191623Z 34017KT 02/M03 A3031 RMK A01 T00171034  RH  069%=      5-min Rain = 0
KAI1 191624Z 34016KT 02/M04 A3031 RMK A01 T00161037  RH  068%=      5-min Rain = 0
KAI1 191625Z 35018KT 02/M04 A3031 RMK A01 T00151036  RH  069%=      5-min Rain = 0
KAI1 191626Z 34014KT 02/M03 A3031 RMK A01 T00171033  RH  070%=      5-min Rain = 0
KAI1 191627Z 35017KT 02/M03 A3031 RMK A01 T00181034  RH  069%=      5-min Rain = 0
KAI1 191628Z 35020KT 02/M04 A3031 RMK A01 T00161036  RH  068%=      5-min Rain = 0
KAI1 191629Z 35018KT 02/M04 A3031 RMK A01 T00161036  RH  068%=      5-min Rain = 0
KAI1 191630Z 34018KT 02/M04 A3031 RMK A01 T00151036  RH  069%=      5-min Rain = 0
KAI1 191631Z 34014KT 02/M04 A3031 RMK A01 T00151035  RH  069%=      5-min Rain = 0
KAI1 191632Z 35018KT 02/M03 A3031 RMK A01 T00171033  RH  070%=      5-min Rain = 0
KAI1 191633Z 35018KT 02/M04 A3031 RMK A01 T00181035  RH  068%=      5-min Rain = 0
KAI1 191634Z 35018KT 02/M04 A3031 RMK A01 T00161037  RH  068%=      5-min Rain = 0
KAI1 191635Z 35015KT 02/M03 A3031 RMK A01 T00171034  RH  069%=      5-min Rain = 0
KAI1 191636Z 35019KT 02/M03 A3031 RMK A01 T00201030  RH  069%=      5-min Rain = 0
KAI1 191637Z 35018KT 02/M03 A3031 RMK A01 T00211034  RH  067%=      5-min Rain = 0
KAI1 191638Z 35018G23KT 02/M04 A3032 RMK A01 T00201035  RH  067%=      5-min Rain = 0
KAI1 191639Z 35016KT 02/M04 A3032 RMK A01 T00191036  RH  067%=      5-min Rain = 0
KAI1 191640Z 35017KT 02/M03 A3031 RMK A01 T00201033  RH  068%=      5-min Rain = 0
KAI1 191641Z 34019KT 02/M03 A3031 RMK A01 T00211034  RH  067%=      5-min Rain = 0
KAI1 191642Z 35019KT 02/M03 A3031 RMK A01 T00221034  RH  067%=      5-min Rain = 0
KAI1 191643Z 34016KT 02/M03 A3031 RMK A01 T00231034  RH  066%=      5-min Rain = 0
KAI1 191644Z 34017KT 02/M03 A3031 RMK A01 T00241031  RH  067%=      5-min Rain = 0
KAI1 191645Z 34016KT 03/M03 A3031 RMK A01 T00261030  RH  067%=      5-min Rain = 0
KAI1 191646Z 34017KT 03/M03 A3031 RMK A01 T00261032  RH  065%=      5-min Rain = 0
KAI1 191647Z 35016KT 03/M03 A3032 RMK A01 T00261031  RH  066%=      5-min Rain = 0
KAI1 191648Z 35017KT 03/M03 A3032 RMK A01 T00271032  RH  065%=      5-min Rain = 0
KAI1 191649Z 35014KT 03/M03 A3032 RMK A01 T00271033  RH  065%=      5-min Rain = 0
KAI1 191650Z 35018KT 03/M03 A3031 RMK A01 T00291028  RH  066%=      5-min Rain = 0
KAI1 191651Z 35020KT 03/M03 A3032 RMK A01 T00291031  RH  064%=      5-min Rain = 0
KAI1 191652Z 00018KT 03/M03 A3032 RMK A01 T00291033  RH  064%=      5-min Rain = 0
KAI1 191653Z 35016KT 03/M03 A3032 RMK A01 T00281032  RH  065%=      5-min Rain = 0
KAI1 191654Z 35016KT 03/M03 A3032 RMK A01 T00291031  RH  065%=      5-min Rain = 0
KAI1 191655Z 35014KT 03/M03 A3032 RMK A01 T00291031  RH  065%=      5-min Rain = 0
KAI1 191656Z 35016KT 03/M03 A3032 RMK A01 T00311027  RH  065%=      5-min Rain = 0
KAI1 191657Z 35015KT 03/M03 A3032 RMK A01 T00331029  RH  064%=      5-min Rain = 0
KAI1 191658Z 35016KT 03/M03 A3032 RMK A01 T00321031  RH  063%=      5-min Rain = 0
KAI1 191659Z 35019G24KT 03/M03 A3032 RMK A01 T00301034  RH  063%=      5-min Rain = 0
KAI1 191700Z 35018G23KT 03/M04 A3032 RMK A01 T00291035  RH  063%=      5-min Rain = 0
KAI1 191701Z 34013KT 03/M03 A3032 RMK A01 T00291032  RH  064%=      5-min Rain = 0
KAI1 191702Z 35018KT 03/M03 A3032 RMK A01 T00321026  RH  066%=      5-min Rain = 0
KAI1 191703Z 34017KT 03/M03 A3032 RMK A01 T00321032  RH  063%=      5-min Rain = 0
KAI1 191704Z 35018KT 03/M03 A3032 RMK A01 T00321032  RH  063%=      5-min Rain = 0
KAI1 191705Z 35017KT 03/M03 A3032 RMK A01 T00321032  RH  063%=      5-min Rain = 0
KAI1 191706Z 35018KT 03/M03 A3032 RMK A01 T00321033  RH  063%=      5-min Rain = 0
KAI1 191707Z 35016KT 03/M03 A3032 RMK A01 T00321031  RH  063%=      5-min Rain = 0
KAI1 191708Z 34016KT 03/M03 A3032 RMK A01 T00331029  RH  064%=      5-min Rain = 0
KAI1 191709Z 36014KT 03/M03 A3032 RMK A01 T00341028  RH  064%=      5-min Rain = 0
KAI1 191710Z 01014KT 04/M03 A3032 RMK A01 T00361028  RH  063%=      5-min Rain = 0
KAI1 191711Z 35013KT 04/M03 A3032 RMK A01 T00361029  RH  063%=      5-min Rain = 0
KAI1 191712Z 35012KT 04/M03 A3032 RMK A01 T00351029  RH  063%=      5-min Rain = 0
KAI1 191713Z 34016G21KT 04/M03 A3032 RMK A01 T00361027  RH  063%=      5-min Rain = 0
KAI1 191714Z 35015KT 04/M03 A3032 RMK A01 T00361029  RH  062%=      5-min Rain = 0
KAI1 191715Z 35019G25KT 04/M03 A3032 RMK A01 T00361030  RH  062%=      5-min Rain = 0
KAI1 191716Z 36020KT 04/M03 A3032 RMK A01 T00361032  RH  061%=      5-min Rain = 0
KAI1 191717Z 36018KT 04/M03 A3032 RMK A01 T00351032  RH  061%=      5-min Rain = 0
KAI1 191718Z 00019KT 04/M03 A3032 RMK A01 T00351032  RH  061%=      5-min Rain = 0
KAI1 191719Z 35020KT 04/M03 A3032 RMK A01 T00361031  RH  062%=      5-min Rain = 0
KAI1 191720Z 35021KT 04/M03 A3032 RMK A01 T00361031  RH  061%=      5-min Rain = 0
KAI1 191721Z 35017KT 04/M03 A3032 RMK A01 T00371031  RH  061%=      5-min Rain = 0
KAI1 191722Z 36020G25KT 04/M03 A3032 RMK A01 T00391028  RH  062%=      5-min Rain = 0
KAI1 191723Z 00020KT 04/M03 A3032 RMK A01 T00411028  RH  061%=      5-min Rain = 0
KAI1 191724Z 35022KT 04/M03 A3032 RMK A01 T00411030  RH  060%=      5-min Rain = 0
KAI1 191725Z 35021KT 04/M03 A3032 RMK A01 T00401032  RH  060%=      5-min Rain = 0
KAI1 191726Z 35019KT 04/M03 A3032 RMK A01 T00401029  RH  061%=      5-min Rain = 0
KAI1 191727Z 35018KT 04/M03 A3032 RMK A01 T00411028  RH  061%=      5-min Rain = 0
KAI1 191728Z 35020KT 04/M03 A3032 RMK A01 T00421029  RH  060%=      5-min Rain = 0
KAI1 191729Z 36019KT 04/M03 A3032 RMK A01 T00411030  RH  060%=      5-min Rain = 0
KAI1 191730Z 34019G25KT 04/M03 A3032 RMK A01 T00421029  RH  060%=      5-min Rain = 0
KAI1 191731Z 34020KT 04/M03 A3031 RMK A01 T00421030  RH  059%=      5-min Rain = 0
KAI1 191732Z 00016KT 04/M03 A3032 RMK A01 T00421029  RH  060%=      5-min Rain = 0
KAI1 191733Z 35016KT 04/M03 A3032 RMK A01 T00431028  RH  060%=      5-min Rain = 0
KAI1 191734Z 35018KT 04/M03 A3032 RMK A01 T00441027  RH  060%=      5-min Rain = 0
KAI1 191735Z 35020KT 04/M03 A3031 RMK A01 T00441029  RH  059%=      5-min Rain = 0
KAI1 191736Z 34019KT 04/M03 A3032 RMK A01 T00441029  RH  059%=      5-min Rain = 0
KAI1 191737Z 35016KT 04/M03 A3032 RMK A01 T00431028  RH  060%=      5-min Rain = 0
KAI1 191738Z 35014KT 04/M03 A3032 RMK A01 T00441026  RH  060%=      5-min Rain = 0
KAI1 191739Z 35016KT 05/M03 A3031 RMK A01 T00461025  RH  060%=      5-min Rain = 0
KAI1 191740Z 35019KT 05/M03 A3032 RMK A01 T00461028  RH  059%=      5-min Rain = 0
KAI1 191741Z 35017KT 05/M03 A3031 RMK A01 T00471028  RH  058%=      5-min Rain = 0
KAI1 191742Z 35016KT 05/M03 A3032 RMK A01 T00481025  RH  059%=      5-min Rain = 0
KAI1 191743Z 35017KT 05/M03 A3032 RMK A01 T00501025  RH  058%=      5-min Rain = 0
KAI1 191744Z 34019KT 05/M03 A3032 RMK A01 T00501026  RH  058%=      5-min Rain = 0
KAI1 191745Z 35018KT 05/M03 A3032 RMK A01 T00501026  RH  058%=      5-min Rain = 0
KAI1 191746Z 34020KT 05/M03 A3032 RMK A01 T00501027  RH  057%=      5-min Rain = 0
KAI1 191747Z 34019KT 05/M03 A3032 RMK A01 T00501027  RH  057%=      5-min Rain = 0
KAI1 191748Z 34021KT 05/M03 A3032 RMK A01 T00501028  RH  057%=      5-min Rain = 0
KAI1 191749Z 35020G25KT 05/M03 A3032 RMK A01 T00491028  RH  057%=      5-min Rain = 0
KAI1 191750Z 35020G25KT 05/M03 A3032 RMK A01 T00511026  RH  058%=      5-min Rain = 0
KAI1 191751Z 34022KT 05/M03 A3032 RMK A01 T00531026  RH  057%=      5-min Rain = 0
KAI1 191752Z 34022KT 05/M03 A3032 RMK A01 T00541027  RH  056%=      5-min Rain = 0
KAI1 191753Z 35023KT 05/M03 A3032 RMK A01 T00531030  RH  055%=      5-min Rain = 0
KAI1 191754Z 35024KT 05/M03 A3032 RMK A01 T00521031  RH  055%=      5-min Rain = 0
KAI1 191755Z 35023KT 05/M03 A3032 RMK A01 T00511031  RH  055%=      5-min Rain = 0
KAI1 191756Z 35022KT 05/M03 A3032 RMK A01 T00511030  RH  056%=      5-min Rain = 0
KAI1 191757Z 35021KT 05/M03 A3032 RMK A01 T00521029  RH  056%=      5-min Rain = 0
KAI1 191758Z 34023KT 05/M03 A3032 RMK A01 T00531029  RH  056%=      5-min Rain = 0
KAI1 191759Z 35023KT 05/M03 A3032 RMK A01 T00531031  RH  055%=      5-min Rain = 0
KAI1 191800Z 35021KT 05/M03 A3032 RMK A01 T00511030  RH  055%=      5-min Rain = 0
KAI1 191801Z 35021KT 05/M03 A3032 RMK A01 T00531030  RH  055%=      5-min Rain = 0
KAI1 191802Z 35021KT 05/M03 A3032 RMK A01 T00531030  RH  055%=      5-min Rain = 0
KAI1 191803Z 35021KT 05/M03 A3032 RMK A01 T00531031  RH  055%=      5-min Rain = 0
KAI1 191804Z 36019KT 05/M03 A3032 RMK A01 T00531031  RH  055%=      5-min Rain = 0
KAI1 191805Z 35022KT 05/M03 A3032 RMK A01 T00531030  RH  055%=      5-min Rain = 0
KAI1 191806Z 35021KT 05/M03 A3032 RMK A01 T00531030  RH  055%=      5-min Rain = 0
KAI1 191807Z 35021KT 05/M03 A3032 RMK A01 T00541030  RH  055%=      5-min Rain = 0
KAI1 191808Z 35018KT 06/M03 A3032 RMK A01 T00551030  RH  054%=      5-min Rain = 0
KAI1 191809Z 35020KT 06/M03 A3032 RMK A01 T00551029  RH  055%=      5-min Rain = 0
KAI1 191810Z 35023KT 06/M03 A3032 RMK A01 T00571029  RH  054%=      5-min Rain = 0
KAI1 191811Z 00020KT 06/M03 A3032 RMK A01 T00571031  RH  053%=      5-min Rain = 0
KAI1 191812Z 35020G25KT 06/M03 A3032 RMK A01 T00551032  RH  053%=      5-min Rain = 0
KAI1 191813Z 35020G26KT 06/M03 A3032 RMK A01 T00571028  RH  054%=      5-min Rain = 0
KAI1 191814Z 36021KT 06/M03 A3032 RMK A01 T00581030  RH  053%=      5-min Rain = 0
KAI1 191815Z 00020KT 06/M03 A3032 RMK A01 T00581032  RH  053%=      5-min Rain = 0
KAI1 191816Z 35021KT 06/M03 A3032 RMK A01 T00581031  RH  053%=      5-min Rain = 0
KAI1 191817Z 36017KT 06/M03 A3032 RMK A01 T00571031  RH  053%=      5-min Rain = 0
KAI1 191818Z 00017KT 06/M03 A3031 RMK A01 T00571029  RH  054%=      5-min Rain = 0
KAI1 191819Z 00018KT 06/M03 A3031 RMK A01 T00601026  RH  054%=      5-min Rain = 0
KAI1 191820Z 36018KT 06/M03 A3031 RMK A01 T00611027  RH  053%=      5-min Rain = 0
KAI1 191821Z 00018KT 06/M03 A3031 RMK A01 T00621027  RH  053%=      5-min Rain = 0
KAI1 191822Z 35017KT 06/M03 A3031 RMK A01 T00621029  RH  052%=      5-min Rain = 0
KAI1 191823Z 35020KT 06/M03 A3031 RMK A01 T00611028  RH  053%=      5-min Rain = 0
KAI1 191824Z 34019G24KT 06/M03 A3031 RMK A01 T00621028  RH  053%=      5-min Rain = 0
KAI1 191825Z 34020KT 06/M03 A3031 RMK A01 T00621029  RH  052%=      5-min Rain = 0
KAI1 191826Z 34020KT 06/M03 A3031 RMK A01 T00621028  RH  052%=      5-min Rain = 0
KAI1 191827Z 35017G22KT 06/M03 A3031 RMK A01 T00621030  RH  052%=      5-min Rain = 0
KAI1 191828Z 35019KT 06/M03 A3031 RMK A01 T00611029  RH  052%=      5-min Rain = 0
KAI1 191829Z 35021KT 06/M03 A3031 RMK A01 T00641027  RH  052%=      5-min Rain = 0
KAI1 191830Z 34019KT 06/M03 A3031 RMK A01 T00631030  RH  051%=      5-min Rain = 0
KAI1 191831Z 35018KT 06/M03 A3031 RMK A01 T00631027  RH  053%=      5-min Rain = 0
KAI1 191832Z 35020KT 06/M03 A3031 RMK A01 T00631029  RH  052%=      5-min Rain = 0
KAI1 191833Z 34021KT 06/M03 A3031 RMK A01 T00631030  RH  051%=      5-min Rain = 0
KAI1 191834Z 35021KT 06/M03 A3031 RMK A01 T00641029  RH  051%=      5-min Rain = 0
KAI1 191835Z 00021KT 07/M03 A3031 RMK A01 T00651029  RH  051%=      5-min Rain = 0
KAI1 191836Z 00022KT 07/M03 A3031 RMK A01 T00651031  RH  050%=      5-min Rain = 0
KAI1 191837Z 35022KT 07/M03 A3031 RMK A01 T00651031  RH  050%=      5-min Rain = 0
KAI1 191838Z 35020KT 06/M03 A3031 RMK A01 T00641029  RH  051%=      5-min Rain = 0
KAI1 191839Z 35020KT 06/M03 A3031 RMK A01 T00641030  RH  051%=      5-min Rain = 0
KAI1 191840Z 35017KT 06/M03 A3031 RMK A01 T00641028  RH  052%=      5-min Rain = 0
KAI1 191841Z 00019G24KT 07/M03 A3031 RMK A01 T00661027  RH  051%=      5-min Rain = 0
KAI1 191842Z 36019KT 07/M03 A3031 RMK A01 T00661029  RH  051%=      5-min Rain = 0
KAI1 191843Z 35019KT 07/M03 A303 RMK A01 T00671028  RH  051%=      5-min Rain = 0
KAI1 191844Z 36018G23KT 07/M03 A303 RMK A01 T00671030  RH  050%=      5-min Rain = 0
KAI1 191845Z 35019KT 07/M03 A303 RMK A01 T00681028  RH  050%=      5-min Rain = 0
KAI1 191846Z 36021KT 07/M03 A303 RMK A01 T00681030  RH  050%=      5-min Rain = 0
KAI1 191847Z 36022KT 07/M03 A303 RMK A01 T00671031  RH  050%=      5-min Rain = 0
KAI1 191848Z 36020KT 07/M03 A303 RMK A01 T00671031  RH  050%=      5-min Rain = 0
KAI1 191849Z 35021KT 07/M03 A303 RMK A01 T00661030  RH  050%=      5-min Rain = 0
KAI1 191850Z 35018KT 07/M03 A303 RMK A01 T00661032  RH  050%=      5-min Rain = 0
KAI1 191851Z 33020KT 07/M03 A3029 RMK A01 T00671026  RH  051%=      5-min Rain = 0
KAI1 191852Z 35020KT 07/M03 A303 RMK A01 T00681027  RH  050%=      5-min Rain = 0
KAI1 191853Z 35021KT 07/M03 A303 RMK A01 T00681030  RH  050%=      5-min Rain = 0
KAI1 191854Z 35021G26KT 07/M03 A3029 RMK A01 T00681029  RH  050%=      5-min Rain = 0
KAI1 191855Z 34021KT 07/M03 A3029 RMK A01 T00681029  RH  050%=      5-min Rain = 0
KAI1 191856Z 34023KT 07/M03 A3029 RMK A01 T00701027  RH  050%=      5-min Rain = 0
KAI1 191857Z 35018G23KT 07/M03 A3029 RMK A01 T00701027  RH  050%=      5-min Rain = 0
KAI1 191858Z 35019KT 07/M03 A3029 RMK A01 T00711025  RH  050%=      5-min Rain = 0
KAI1 191859Z 35022KT 07/M03 A3029 RMK A01 T00721029  RH  049%=      5-min Rain = 0
KAI1 191900Z 36021KT 07/M03 A3029 RMK A01 T00711032  RH  048%=      5-min Rain = 0
KAI1 191901Z 36020KT 07/M03 A3029 RMK A01 T00701031  RH  049%=      5-min Rain = 0
KAI1 191902Z 35020KT 07/M03 A3029 RMK A01 T00711030  RH  049%=      5-min Rain = 0
KAI1 191903Z 35018KT 07/M03 A3029 RMK A01 T00701030  RH  049%=      5-min Rain = 0
KAI1 191904Z 35019KT 07/M03 A3029 RMK A01 T00701031  RH  049%=      5-min Rain = 0
KAI1 191905Z 34019KT 07/M03 A3029 RMK A01 T00711026  RH  050%=      5-min Rain = 0
KAI1 191906Z 35020KT 07/M03 A3029 RMK A01 T00721026  RH  050%=      5-min Rain = 0
KAI1 191907Z 34021KT 07/M03 A3029 RMK A01 T00711030  RH  049%=      5-min Rain = 0
KAI1 191908Z 34018KT 07/M03 A3029 RMK A01 T00701028  RH  050%=      5-min Rain = 0
KAI1 191909Z 34022KT 07/M03 A3029 RMK A01 T00711029  RH  049%=      5-min Rain = 0
KAI1 191910Z 35020G25KT 07/M03 A3029 RMK A01 T00701030  RH  049%=      5-min Rain = 0
KAI1 191911Z 34019KT 07/M03 A3029 RMK A01 T00711029  RH  049%=      5-min Rain = 0
KAI1 191912Z 34022KT 07/M03 A3029 RMK A01 T00741027  RH  049%=      5-min Rain = 0
KAI1 191913Z 34021KT 07/M03 A3029 RMK A01 T00731031  RH  048%=      5-min Rain = 0
KAI1 191914Z 34019KT 07/M03 A3029 RMK A01 T00731028  RH  049%=      5-min Rain = 0
KAI1 191915Z 35020KT 07/M03 A3029 RMK A01 T00741030  RH  047%=      5-min Rain = 0
KAI1 191916Z 36019KT 07/M03 A3029 RMK A01 T00731034  RH  046%=      5-min Rain = 0
KAI1 191917Z 35022KT 07/M03 A3029 RMK A01 T00721032  RH  047%=      5-min Rain = 0
KAI1 191918Z 34021KT 07/M03 A3029 RMK A01 T00731034  RH  047%=      5-min Rain = 0
KAI1 191919Z 35021KT 07/M03 A3029 RMK A01 T00721033  RH  047%=      5-min Rain = 0
KAI1 191920Z 35020KT 07/M03 A3029 RMK A01 T00711033  RH  047%=      5-min Rain = 0
KAI1 191921Z 34021KT 07/M03 A3028 RMK A01 T00731031  RH  048%=      5-min Rain = 0
KAI1 191922Z 34022KT 07/M03 A3028 RMK A01 T00741032  RH  047%=      5-min Rain = 0
KAI1 191923Z 34019KT 07/M03 A3028 RMK A01 T00731033  RH  047%=      5-min Rain = 0
KAI1 191924Z 34016KT 07/M03 A3028 RMK A01 T00731031  RH  048%=      5-min Rain = 0
KAI1 191925Z 35020G26KT 07/M03 A3028 RMK A01 T00741029  RH  048%=      5-min Rain = 0
KAI1 191926Z 35020G25KT 08/M03 A3028 RMK A01 T00761031  RH  047%=      5-min Rain = 0
KAI1 191927Z 35018KT 08/M03 A3028 RMK A01 T00761031  RH  047%=      5-min Rain = 0
KAI1 191928Z 34020KT 08/M03 A3028 RMK A01 T00761031  RH  047%=      5-min Rain = 0
KAI1 191929Z 34020KT 08/M03 A3028 RMK A01 T00761031  RH  047%=      5-min Rain = 0
KAI1 191930Z 35016KT 07/M03 A3028 RMK A01 T00741028  RH  048%=      5-min Rain = 0
KAI1 191931Z 35016G21KT 08/M03 A3028 RMK A01 T00771025  RH  048%=      5-min Rain = 0
KAI1 191932Z 34018KT 08/M03 A3028 RMK A01 T00791026  RH  047%=      5-min Rain = 0
KAI1 191933Z 34022KT 08/M03 A3028 RMK A01 T00791030  RH  046%=      5-min Rain = 0
KAI1 191934Z 34020KT 08/M03 A3028 RMK A01 T00761034  RH  046%=      5-min Rain = 0
KAI1 191935Z 34021KT 07/M03 A3028 RMK A01 T00741033  RH  047%=      5-min Rain = 0
KAI1 191936Z 34022KT 07/M03 A3028 RMK A01 T00741033  RH  046%=      5-min Rain = 0
KAI1 191937Z 34021KT 07/M03 A3028 RMK A01 T00741032  RH  047%=      5-min Rain = 0
KAI1 191938Z 34024KT 07/M04 A3028 RMK A01 T00741035  RH  046%=      5-min Rain = 0
KAI1 191939Z 34021KT 07/M04 A3028 RMK A01 T00731035  RH  046%=      5-min Rain = 0
KAI1 191940Z 35021KT 07/M04 A3028 RMK A01 T00731035  RH  046%=      5-min Rain = 0
KAI1 191941Z 34019KT 07/M03 A3028 RMK A01 T00741034  RH  046%=      5-min Rain = 0
KAI1 191942Z 34021KT 08/M03 A3028 RMK A01 T00761032  RH  046%=      5-min Rain = 0
KAI1 191943Z 35019G24KT 08/M03 A3028 RMK A01 T00771031  RH  046%=      5-min Rain = 0
KAI1 191944Z 34021KT 08/M03 A3028 RMK A01 T00771033  RH  046%=      5-min Rain = 0
KAI1 191945Z 35020KT 08/M04 A3028 RMK A01 T00761035  RH  045%=      5-min Rain = 0
KAI1 191946Z 35018G23KT 08/M04 A3028 RMK A01 T00761035  RH  045%=      5-min Rain = 0
KAI1 191947Z 34020G25KT 08/M04 A3028 RMK A01 T00771035  RH  045%=      5-min Rain = 0
KAI1 191948Z 34018KT 08/M03 A3028 RMK A01 T00771034  RH  045%=      5-min Rain = 0
KAI1 191949Z 34020KT 08/M03 A3027 RMK A01 T00781033  RH  045%=      5-min Rain = 0
KAI1 191950Z 34022KT 08/M04 A3027 RMK A01 T00781036  RH  044%=      5-min Rain = 0
KAI1 191951Z 34019KT 08/M04 A3027 RMK A01 T00771037  RH  044%=      5-min Rain = 0
KAI1 191952Z 36017KT 08/M03 A3027 RMK A01 T00781033  RH  045%=      5-min Rain = 0
KAI1 191953Z 35020KT 08/M04 A3027 RMK A01 T00801035  RH  044%=      5-min Rain = 0
KAI1 191954Z 34019KT 08/M03 A3027 RMK A01 T00811034  RH  044%=      5-min Rain = 0
KAI1 191955Z 35018KT 08/M03 A3027 RMK A01 T00831030  RH  045%=      5-min Rain = 0
KAI1 191956Z 34020KT 08/M03 A3027 RMK A01 T00831034  RH  043%=      5-min Rain = 0
KAI1 191957Z 34020KT 08/M03 A3027 RMK A01 T00811034  RH  044%=      5-min Rain = 0
KAI1 191958Z 34021KT 08/M04 A3027 RMK A01 T00801035  RH  044%=      5-min Rain = 0
KAI1 191959Z 35023KT 08/M04 A3027 RMK A01 T00801037  RH  043%=      5-min Rain = 0
KAI1 192000Z 35021KT 08/M04 A3027 RMK A01 T00791039  RH  043%=      5-min Rain = 0
KAI1 192001Z 36020KT 08/M04 A3027 RMK A01 T00791038  RH  043%=      5-min Rain = 0
KAI1 192002Z 36019KT 08/M04 A3027 RMK A01 T00791037  RH  044%=      5-min Rain = 0
KAI1 192003Z 36018KT 08/M04 A3027 RMK A01 T00791037  RH  044%=      5-min Rain = 0
KAI1 192004Z 35019KT 08/M04 A3027 RMK A01 T00791036  RH  044%=      5-min Rain = 0
KAI1 192005Z 36016KT 08/M03 A3027 RMK A01 T00821031  RH  045%=      5-min Rain = 0
KAI1 192006Z 35020KT 09/M03 A3027 RMK A01 T00851031  RH  044%=      5-min Rain = 0
KAI1 192007Z 36018KT 08/M04 A3027 RMK A01 T00831037  RH  042%=      5-min Rain = 0
KAI1 192008Z 36019KT 08/M04 A3027 RMK A01 T00801039  RH  043%=      5-min Rain = 0
KAI1 192009Z 36020G25KT 08/M04 A3027 RMK A01 T00801038  RH  043%=      5-min Rain = 0
KAI1 192010Z 36022KT 08/M04 A3027 RMK A01 T00821037  RH  043%=      5-min Rain = 0
KAI1 192011Z 35018KT 08/M04 A3027 RMK A01 T00801038  RH  043%=      5-min Rain = 0
KAI1 192012Z 36018KT 08/M03 A3027 RMK A01 T00801034  RH  044%=      5-min Rain = 0
KAI1 192013Z 35017G22KT 08/M04 A3027 RMK A01 T00811035  RH  044%=      5-min Rain = 0
KAI1 192014Z 36021KT 08/M04 A3027 RMK A01 T00801035  RH  044%=      5-min Rain = 0
KAI1 192015Z 34019KT 08/M03 A3027 RMK A01 T00801034  RH  044%=      5-min Rain = 0
KAI1 192016Z 34020KT 08/M03 A3026 RMK A01 T00801034  RH  044%=      5-min Rain = 0
KAI1 192017Z 34017KT 08/M03 A3026 RMK A01 T00801034  RH  044%=      5-min Rain = 0
KAI1 192018Z 33019KT 08/M03 A3026 RMK A01 T00801033  RH  045%=      5-min Rain = 0
KAI1 192019Z 33018KT 08/M03 A3026 RMK A01 T00801032  RH  045%=      5-min Rain = 0
KAI1 192020Z 33019KT 08/M03 A3026 RMK A01 T00791033  RH  045%=      5-min Rain = 0
KAI1 192021Z 00018KT 08/M03 A3026 RMK A01 T00811031  RH  045%=      5-min Rain = 0
KAI1 192022Z 34017KT 08/M03 A3027 RMK A01 T00821032  RH  044%=      5-min Rain = 0
KAI1 192023Z 34018KT 08/M03 A3026 RMK A01 T00821031  RH  045%=      5-min Rain = 0
KAI1 192024Z 34017KT 08/M03 A3026 RMK A01 T00821030  RH  045%=      5-min Rain = 0
KAI1 192025Z 34016KT 08/M03 A3027 RMK A01 T00821030  RH  045%=      5-min Rain = 0
KAI1 192026Z 33013KT 08/M03 A3027 RMK A01 T00821029  RH  045%=      5-min Rain = 0
KAI1 192027Z 33017KT 09/M02 A3026 RMK A01 T00861023  RH  046%=      5-min Rain = 0
KAI1 192028Z 35016KT 09/M03 A3027 RMK A01 T00851030  RH  044%=      5-min Rain = 0
KAI1 192029Z 34016KT 08/M03 A3027 RMK A01 T00811034  RH  044%=      5-min Rain = 0
KAI1 192030Z 34017KT 08/M03 A3027 RMK A01 T00811034  RH  044%=      5-min Rain = 0
KAI1 192031Z 34017KT 08/M03 A3027 RMK A01 T00821034  RH  044%=      5-min Rain = 0
KAI1 192032Z 35016KT 08/M03 A3027 RMK A01 T00821030  RH  045%=      5-min Rain = 0
KAI1 192033Z 34018KT 08/M03 A3027 RMK A01 T00831031  RH  044%=      5-min Rain = 0
KAI1 192034Z 35015KT 08/M03 A3027 RMK A01 T00831030  RH  045%=      5-min Rain = 0
KAI1 192035Z 34017G22KT 08/M03 A3027 RMK A01 T00831032  RH  044%=      5-min Rain = 0
KAI1 192036Z 33019KT 08/M03 A3026 RMK A01 T00821031  RH  045%=      5-min Rain = 0
KAI1 192037Z 34016KT 08/M03 A3027 RMK A01 T00831029  RH  045%=      5-min Rain = 0
KAI1 192038Z 34016KT 08/M03 A3027 RMK A01 T00821029  RH  045%=      5-min Rain = 0
KAI1 192039Z 34019KT 08/M03 A3027 RMK A01 T00821031  RH  045%=      5-min Rain = 0
KAI1 192040Z 34015KT 08/M03 A3027 RMK A01 T00821032  RH  045%=      5-min Rain = 0
KAI1 192041Z 34017KT 08/M03 A3027 RMK A01 T00841026  RH  046%=      5-min Rain = 0
KAI1 192042Z 34017KT 09/M03 A3027 RMK A01 T00851030  RH  044%=      5-min Rain = 0
KAI1 192043Z 33015KT 08/M03 A3027 RMK A01 T00831031  RH  044%=      5-min Rain = 0
KAI1 192044Z 34014G19KT 08/M03 A3027 RMK A01 T00811030  RH  045%=      5-min Rain = 0
KAI1 192045Z 35013KT 08/M03 A3027 RMK A01 T00811027  RH  046%=      5-min Rain = 0
KAI1 192046Z 33017KT 08/M03 A3027 RMK A01 T00831029  RH  045%=      5-min Rain = 0
KAI1 192047Z 34017KT 08/M03 A3027 RMK A01 T00841028  RH  045%=      5-min Rain = 0
KAI1 192048Z 34014KT 08/M03 A3027 RMK A01 T00831029  RH  045%=      5-min Rain = 0
KAI1 192049Z 33016KT 08/M03 A3027 RMK A01 T00831026  RH  046%=      5-min Rain = 0
KAI1 192050Z 34014KT 08/M03 A3027 RMK A01 T00841028  RH  045%=      5-min Rain = 0
KAI1 192051Z 34013KT 08/M02 A3027 RMK A01 T00841024  RH  046%=      5-min Rain = 0
KAI1 192052Z 34015KT 08/M03 A3027 RMK A01 T00841029  RH  045%=      5-min Rain = 0
KAI1 192053Z 34016G21KT 08/M03 A3027 RMK A01 T00831027  RH  046%=      5-min Rain = 0
KAI1 192054Z 34015KT 08/M03 A3027 RMK A01 T00841027  RH  045%=      5-min Rain = 0
KAI1 192055Z 33017G22KT 09/M03 A3027 RMK A01 T00851029  RH  045%=      5-min Rain = 0
KAI1 192056Z 34017KT 09/M03 A3027 RMK A01 T00851028  RH  045%=      5-min Rain = 0
KAI1 192057Z 35017KT 09/M03 A3027 RMK A01 T00861029  RH  044%=      5-min Rain = 0
KAI1 192058Z 34016KT 09/M03 A3027 RMK A01 T00861030  RH  044%=      5-min Rain = 0
KAI1 192059Z 33015KT 08/M03 A3027 RMK A01 T00841031  RH  044%=      5-min Rain = 0
KAI1 192100Z 34018G23KT 08/M03 A3027 RMK A01 T00841028  RH  045%=      5-min Rain = 0
KAI1 192101Z 34016KT 09/M03 A3027 RMK A01 T00851031  RH  044%=      5-min Rain = 0
KAI1 192102Z 33016KT 08/M03 A3027 RMK A01 T00841030  RH  044%=      5-min Rain = 0
KAI1 192103Z 33016KT 09/M03 A3027 RMK A01 T00851029  RH  045%=      5-min Rain = 0
KAI1 192104Z 33018KT 09/M03 A3027 RMK A01 T00851028  RH  045%=      5-min Rain = 0
KAI1 192105Z 34017KT 09/M03 A3027 RMK A01 T00851030  RH  044%=      5-min Rain = 0
KAI1 192106Z 34015KT 08/M03 A3027 RMK A01 T00841032  RH  044%=      5-min Rain = 0
KAI1 192107Z 33014KT 08/M03 A3027 RMK A01 T00831031  RH  045%=      5-min Rain = 0
KAI1 192108Z 33014KT 08/M03 A3027 RMK A01 T00831032  RH  044%=      5-min Rain = 0
KAI1 192109Z 34012KT 08/M03 A3027 RMK A01 T00841029  RH  045%=      5-min Rain = 0
KAI1 192110Z 34015KT 09/M03 A3027 RMK A01 T00871026  RH  045%=      5-min Rain = 0
KAI1 192111Z 34014KT 09/M03 A3027 RMK A01 T00851030  RH  044%=      5-min Rain = 0
KAI1 192112Z 34015KT 09/M03 A3027 RMK A01 T00851030  RH  044%=      5-min Rain = 0
KAI1 192113Z 35016KT 08/M03 A3027 RMK A01 T00841032  RH  044%=      5-min Rain = 0
KAI1 192114Z 33015KT 09/M03 A3027 RMK A01 T00851030  RH  044%=      5-min Rain = 0
KAI1 192115Z 33017KT 08/M03 A3027 RMK A01 T00841030  RH  045%=      5-min Rain = 0
KAI1 192116Z 34018KT 08/M03 A3027 RMK A01 T00841030  RH  045%=      5-min Rain = 0
KAI1 192117Z 35018KT 08/M03 A3027 RMK A01 T00841032  RH  044%=      5-min Rain = 0
KAI1 192118Z 34014KT 09/M03 A3027 RMK A01 T00851033  RH  043%=      5-min Rain = 0
KAI1 192119Z 35013KT 09/M03 A3027 RMK A01 T00861029  RH  044%=      5-min Rain = 0
KAI1 192120Z 34015KT 09/M03 A3027 RMK A01 T00891026  RH  044%=      5-min Rain = 0
KAI1 192121Z 34015KT 09/M03 A3027 RMK A01 T00891029  RH  043%=      5-min Rain = 0
KAI1 192122Z 35015KT 09/M03 A3027 RMK A01 T00881028  RH  044%=      5-min Rain = 0
KAI1 192123Z 35015KT 09/M03 A3027 RMK A01 T00871030  RH  043%=      5-min Rain = 0
KAI1 192124Z 35015KT 09/M03 A3027 RMK A01 T00871032  RH  043%=      5-min Rain = 0
KAI1 192125Z 34014KT 09/M03 A3027 RMK A01 T00861031  RH  044%=      5-min Rain = 0
KAI1 192126Z 33014KT 09/M03 A3026 RMK A01 T00861029  RH  044%=      5-min Rain = 0
KAI1 192127Z 34014KT 09/M03 A3027 RMK A01 T00861027  RH  045%=      5-min Rain = 0
KAI1 192128Z 32013KT 09/M03 A3026 RMK A01 T00861029  RH  044%=      5-min Rain = 0
KAI1 192129Z 33014KT 09/M03 A3027 RMK A01 T00861027  RH  045%=      5-min Rain = 0
KAI1 192130Z 35014KT 09/M03 A3027 RMK A01 T00861030  RH  044%=      5-min Rain = 0
KAI1 192131Z 35014KT 09/M03 A3027 RMK A01 T00871031  RH  043%=      5-min Rain = 0
KAI1 192132Z 34015KT 09/M03 A3027 RMK A01 T00881030  RH  043%=      5-min Rain = 0
KAI1 192133Z 35016KT 09/M03 A3027 RMK A01 T00881031  RH  043%=      5-min Rain = 0
KAI1 192134Z 35015KT 09/M03 A3027 RMK A01 T00871033  RH  043%=      5-min Rain = 0
KAI1 192135Z 34013KT 09/M03 A3027 RMK A01 T00861034  RH  043%=      5-min Rain = 0
KAI1 192136Z 34013KT 09/M03 A3027 RMK A01 T00851032  RH  044%=      5-min Rain = 0
KAI1 192137Z 35015KT 09/M03 A3027 RMK A01 T00871029  RH  044%=      5-min Rain = 0
KAI1 192138Z 35015KT 09/M03 A3027 RMK A01 T00881032  RH  043%=      5-min Rain = 0
KAI1 192139Z 35012KT 09/M03 A3027 RMK A01 T00871031  RH  043%=      5-min Rain = 0
KAI1 192140Z 34012KT 09/M03 A3027 RMK A01 T00881030  RH  043%=      5-min Rain = 0
KAI1 192141Z 32013KT 09/M03 A3027 RMK A01 T00881028  RH  044%=      5-min Rain = 0
KAI1 192142Z 32015KT 09/M03 A3027 RMK A01 T00881031  RH  043%=      5-min Rain = 0
KAI1 192143Z 32013KT 09/M03 A3027 RMK A01 T00871032  RH  043%=      5-min Rain = 0
KAI1 192144Z 32010KT 09/M03 A3027 RMK A01 T00861031  RH  044%=      5-min Rain = 0
KAI1 192145Z 34014KT 09/M03 A3027 RMK A01 T00871027  RH  045%=      5-min Rain = 0
KAI1 192146Z 34012KT 09/M03 A3027 RMK A01 T00881028  RH  044%=      5-min Rain = 0
KAI1 192147Z 34013KT 09/M03 A3027 RMK A01 T00881029  RH  043%=      5-min Rain = 0
KAI1 192148Z 33016KT 09/M03 A3027 RMK A01 T00881032  RH  043%=      5-min Rain = 0
KAI1 192149Z 33014KT 09/M04 A3027 RMK A01 T00871035  RH  042%=      5-min Rain = 0
KAI1 192150Z 33015KT 09/M03 A3027 RMK A01 T00861032  RH  043%=      5-min Rain = 0
KAI1 192151Z 33014KT 09/M03 A3027 RMK A01 T00871031  RH  043%=      5-min Rain = 0
KAI1 192152Z 34014KT 09/M03 A3027 RMK A01 T00871032  RH  043%=      5-min Rain = 0
KAI1 192153Z 34014KT 09/M03 A3027 RMK A01 T00881032  RH  043%=      5-min Rain = 0
KAI1 192154Z 34018KT 09/M03 A3027 RMK A01 T00881034  RH  042%=      5-min Rain = 0
KAI1 192155Z 34015KT 09/M04 A3027 RMK A01 T00871036  RH  042%=      5-min Rain = 0
KAI1 192156Z 34017KT 09/M04 A3027 RMK A01 T00871035  RH  042%=      5-min Rain = 0
KAI1 192157Z 34017KT 09/M04 A3027 RMK A01 T00861036  RH  042%=      5-min Rain = 0
KAI1 192158Z 35016KT 09/M04 A3027 RMK A01 T00851035  RH  042%=      5-min Rain = 0
KAI1 192159Z 35015KT 09/M04 A3027 RMK A01 T00861035  RH  042%=      5-min Rain = 0
KAI1 192200Z 36015KT 09/M04 A3027 RMK A01 T00851036  RH  042%=      5-min Rain = 0
KAI1 192201Z 35015KT 08/M04 A3028 RMK A01 T00841038  RH  042%=      5-min Rain = 0
KAI1 192202Z 00012KT 08/M04 A3028 RMK A01 T00841037  RH  042%=      5-min Rain = 0
KAI1 192203Z 34012G17KT 09/M03 A3028 RMK A01 T00861032  RH  043%=      5-min Rain = 0
KAI1 192204Z 35015KT 09/M04 A3028 RMK A01 T00861036  RH  042%=      5-min Rain = 0
KAI1 192205Z 35014KT 09/M04 A3028 RMK A01 T00861037  RH  042%=      5-min Rain = 0
KAI1 192206Z 35014KT 09/M04 A3028 RMK A01 T00861036  RH  042%=      5-min Rain = 0
KAI1 192207Z 35016KT 09/M04 A3028 RMK A01 T00861035  RH  042%=      5-min Rain = 0
KAI1 192208Z 34014KT 09/M04 A3028 RMK A01 T00861037  RH  042%=      5-min Rain = 0
KAI1 192209Z 34014KT 09/M04 A3028 RMK A01 T00861035  RH  042%=      5-min Rain = 0
KAI1 192210Z 34014KT 09/M04 A3028 RMK A01 T00861036  RH  042%=      5-min Rain = 0
KAI1 192211Z 34013KT 09/M04 A3028 RMK A01 T00851035  RH  043%=      5-min Rain = 0
KAI1 192212Z 34014KT 08/M04 A3028 RMK A01 T00831038  RH  042%=      5-min Rain = 0
KAI1 192213Z 35014KT 08/M04 A3028 RMK A01 T00831037  RH  043%=      5-min Rain = 0
KAI1 192214Z 35011KT 08/M03 A3028 RMK A01 T00841032  RH  044%=      5-min Rain = 0
KAI1 192215Z 35013KT 09/M03 A3028 RMK A01 T00861034  RH  043%=      5-min Rain = 0
KAI1 192216Z 33013KT 09/M04 A3028 RMK A01 T00861035  RH  042%=      5-min Rain = 0
KAI1 192217Z 33015KT 09/M03 A3027 RMK A01 T00861034  RH  043%=      5-min Rain = 0
KAI1 192218Z 33017KT 09/M03 A3027 RMK A01 T00851033  RH  043%=      5-min Rain = 0
KAI1 192219Z 34015KT 08/M04 A3027 RMK A01 T00841036  RH  043%=      5-min Rain = 0
KAI1 192220Z 35015KT 08/M04 A3027 RMK A01 T00841036  RH  043%=      5-min Rain = 0
KAI1 192221Z 35013KT 08/M04 A3028 RMK A01 T00831038  RH  042%=      5-min Rain = 0
KAI1 192222Z 33012KT 08/M04 A3028 RMK A01 T00831037  RH  043%=      5-min Rain = 0
KAI1 192223Z 34011KT 08/M03 A3028 RMK A01 T00831033  RH  044%=      5-min Rain = 0
KAI1 192224Z 33012KT 08/M03 A3028 RMK A01 T00831030  RH  045%=      5-min Rain = 0
KAI1 192225Z 33011KT 08/M03 A3027 RMK A01 T00841031  RH  044%=      5-min Rain = 0
KAI1 192226Z 33010KT 08/M03 A3027 RMK A01 T00841031  RH  044%=      5-min Rain = 0
KAI1 192227Z 34011G16KT 08/M03 A3027 RMK A01 T00841031  RH  044%=      5-min Rain = 0
KAI1 192228Z 34016KT 09/M03 A3027 RMK A01 T00851031  RH  044%=      5-min Rain = 0
KAI1 192229Z 34014KT 09/M03 A3027 RMK A01 T00851034  RH  043%=      5-min Rain = 0
KAI1 192230Z 34012KT 08/M04 A3027 RMK A01 T00841035  RH  043%=      5-min Rain = 0
KAI1 192231Z 35014KT 08/M03 A3027 RMK A01 T00841034  RH  043%=      5-min Rain = 0
KAI1 192232Z 35014KT 08/M04 A3027 RMK A01 T00841037  RH  042%=      5-min Rain = 0
KAI1 192233Z 35015KT 09/M04 A3027 RMK A01 T00851036  RH  042%=      5-min Rain = 0
KAI1 192234Z 36014KT 09/M04 A3027 RMK A01 T00851037  RH  042%=      5-min Rain = 0
KAI1 192235Z 35013KT 08/M04 A3027 RMK A01 T00841038  RH  042%=      5-min Rain = 0
KAI1 192236Z 35014KT 09/M04 A3027 RMK A01 T00851037  RH  042%=      5-min Rain = 0
KAI1 192237Z 35016KT 09/M04 A3027 RMK A01 T00851037  RH  042%=      5-min Rain = 0
KAI1 192238Z 35016KT 09/M04 A3027 RMK A01 T00851038  RH  042%=      5-min Rain = 0
KAI1 192239Z 35014KT 08/M04 A3027 RMK A01 T00841039  RH  042%=      5-min Rain = 0
KAI1 192240Z 34013KT 08/M04 A3027 RMK A01 T00831037  RH  043%=      5-min Rain = 0
KAI1 192241Z 35012KT 08/M04 A3027 RMK A01 T00831037  RH  043%=      5-min Rain = 0
KAI1 192242Z 36012KT 08/M04 A3027 RMK A01 T00821038  RH  043%=      5-min Rain = 0
KAI1 192243Z 35011KT 08/M04 A3027 RMK A01 T00821037  RH  043%=      5-min Rain = 0
KAI1 192244Z 00011KT 08/M04 A3027 RMK A01 T00821038  RH  043%=      5-min Rain = 0
KAI1 192245Z 35013KT 08/M04 A3027 RMK A01 T00821038  RH  042%=      5-min Rain = 0
KAI1 192246Z 36014KT 08/M04 A3027 RMK A01 T00821037  RH  043%=      5-min Rain = 0
KAI1 192247Z 35014KT 08/M04 A3027 RMK A01 T00821038  RH  043%=      5-min Rain = 0
KAI1 192248Z 35011KT 08/M04 A3027 RMK A01 T00821037  RH  043%=      5-min Rain = 0
KAI1 192249Z 35012KT 08/M03 A3027 RMK A01 T00831034  RH  044%=      5-min Rain = 0
KAI1 192250Z 36014KT 08/M04 A3027 RMK A01 T00831036  RH  043%=      5-min Rain = 0
KAI1 192251Z 00014KT 08/M04 A3027 RMK A01 T00821036  RH  043%=      5-min Rain = 0
KAI1 192252Z 00014KT 08/M04 A3027 RMK A01 T00821037  RH  043%=      5-min Rain = 0
KAI1 192253Z 35014KT 08/M04 A3027 RMK A01 T00811039  RH  042%=      5-min Rain = 0
KAI1 192254Z 35012KT 08/M04 A3027 RMK A01 T00811037  RH  043%=      5-min Rain = 0
KAI1 192255Z 36014KT 08/M04 A3027 RMK A01 T00811036  RH  044%=      5-min Rain = 0
KAI1 192256Z 36014KT 08/M04 A3027 RMK A01 T00811038  RH  043%=      5-min Rain = 0
KAI1 192257Z 36012KT 08/M04 A3027 RMK A01 T00801038  RH  043%=      5-min Rain = 0
KAI1 192258Z 35012KT 08/M04 A3027 RMK A01 T00801037  RH  043%=      5-min Rain = 0
KAI1 192259Z 35011KT 08/M04 A3027 RMK A01 T00801037  RH  043%=      5-min Rain = 0
KAI1 192300Z 36012KT 08/M04 A3027 RMK A01 T00801036  RH  044%=      5-min Rain = 0
KAI1 192301Z 35012KT 08/M04 A3027 RMK A01 T00801036  RH  044%=      5-min Rain = 0
KAI1 192302Z 36010KT 08/M04 A3027 RMK A01 T00801038  RH  043%=      5-min Rain = 0
KAI1 192303Z 00011KT 08/M04 A3027 RMK A01 T00801037  RH  043%=      5-min Rain = 0
KAI1 192304Z 00011KT 08/M04 A3027 RMK A01 T00791038  RH  043%=      5-min Rain = 0
KAI1 192305Z 36010KT 08/M04 A3027 RMK A01 T00791038  RH  043%=      5-min Rain = 0
KAI1 192306Z 36012KT 08/M04 A3027 RMK A01 T00791036  RH  044%=      5-min Rain = 0
KAI1 192307Z 00010KT 08/M04 A3027 RMK A01 T00791036  RH  044%=      5-min Rain = 0
KAI1 192308Z 01011KT 08/M04 A3027 RMK A01 T00791037  RH  043%=      5-min Rain = 0
KAI1 192309Z 00010KT 08/M04 A3027 RMK A01 T00791037  RH  044%=      5-min Rain = 0
KAI1 192310Z 36011KT 08/M04 A3027 RMK A01 T00791037  RH  044%=      5-min Rain = 0
KAI1 192311Z 35011KT 08/M04 A3027 RMK A01 T00791036  RH  044%=      5-min Rain = 0
KAI1 192312Z 36010KT 08/M04 A3027 RMK A01 T00791037  RH  044%=      5-min Rain = 0
KAI1 192313Z 00010KT 08/M04 A3027 RMK A01 T00781036  RH  044%=      5-min Rain = 0
KAI1 192314Z 35009KT 08/M04 A3027 RMK A01 T00781035  RH  044%=      5-min Rain = 0
KAI1 192315Z 35010KT 08/M04 A3027 RMK A01 T00781035  RH  045%=      5-min Rain = 0
KAI1 192316Z 35009KT 08/M04 A3027 RMK A01 T00781036  RH  044%=      5-min Rain = 0
KAI1 192317Z 34011KT 08/M04 A3027 RMK A01 T00781035  RH  045%=      5-min Rain = 0
KAI1 192318Z 35010KT 08/M04 A3027 RMK A01 T00781036  RH  044%=      5-min Rain = 0
KAI1 192319Z 35009KT 08/M03 A3027 RMK A01 T00771034  RH  045%=      5-min Rain = 0
KAI1 192320Z 35009KT 08/M04 A3027 RMK A01 T00771035  RH  045%=      5-min Rain = 0
KAI1 192321Z 36008KT 08/M03 A3027 RMK A01 T00761034  RH  046%=      5-min Rain = 0
KAI1 192322Z 00009KT 08/M04 A3027 RMK A01 T00761035  RH  045%=      5-min Rain = 0
KAI1 192323Z 00010KT 08/M04 A3027 RMK A01 T00751035  RH  045%=      5-min Rain = 0
KAI1 192324Z 00009KT 08/M04 A3027 RMK A01 T00751035  RH  045%=      5-min Rain = 0
KAI1 192325Z 01009KT 08/M04 A3027 RMK A01 T00751035  RH  045%=      5-min Rain = 0
KAI1 192326Z 01008KT 07/M04 A3027 RMK A01 T00741035  RH  046%=      5-min Rain = 0
KAI1 192327Z 00009KT 07/M03 A3027 RMK A01 T00731034  RH  046%=      5-min Rain = 0
KAI1 192328Z 00011KT 07/M04 A3027 RMK A01 T00731036  RH  046%=      5-min Rain = 0
KAI1 192329Z 01010KT 07/M04 A3027 RMK A01 T00731037  RH  046%=      5-min Rain = 0
KAI1 192330Z 01010KT 07/M04 A3027 RMK A01 T00731037  RH  046%=      5-min Rain = 0
KAI1 192331Z 01011KT 07/M04 A3027 RMK A01 T00731037  RH  046%=      5-min Rain = 0
KAI1 192332Z 00010KT 07/M04 A3027 RMK A01 T00721036  RH  046%=      5-min Rain = 0
KAI1 192333Z 00011KT 07/M04 A3027 RMK A01 T00711037  RH  046%=      5-min Rain = 0
KAI1 192334Z 01011KT 07/M04 A3027 RMK A01 T00711037  RH  046%=      5-min Rain = 0
KAI1 192335Z 01011KT 07/M04 A3027 RMK A01 T00711037  RH  046%=      5-min Rain = 0
KAI1 192336Z 00009KT 07/M04 A3027 RMK A01 T00701037  RH  046%=      5-min Rain = 0
KAI1 192337Z 36010KT 07/M04 A3027 RMK A01 T00691036  RH  047%=      5-min Rain = 0
KAI1 192338Z 00009KT 07/M04 A3027 RMK A01 T00681037  RH  047%=      5-min Rain = 0
KAI1 192339Z 00009KT 07/M04 A3027 RMK A01 T00681037  RH  047%=      5-min Rain = 0
KAI1 192340Z 00010KT 07/M04 A3027 RMK A01 T00671037  RH  047%=      5-min Rain = 0
KAI1 192341Z 00010KT 07/M04 A3027 RMK A01 T00671038  RH  047%=      5-min Rain = 0
KAI1 192342Z 01010KT 07/M04 A3027 RMK A01 T00661037  RH  047%=      5-min Rain = 0
KAI1 192343Z 01009KT 07/M04 A3027 RMK A01 T00661037  RH  048%=      5-min Rain = 0
KAI1 192344Z 01011KT 06/M04 A3027 RMK A01 T00641038  RH  048%=      5-min Rain = 0
KAI1 192345Z 01010KT 06/M04 A3027 RMK A01 T00641038  RH  048%=      5-min Rain = 0
KAI1 192346Z 01010KT 06/M04 A3027 RMK A01 T00641038  RH  048%=      5-min Rain = 0
KAI1 192347Z 01010KT 06/M04 A3027 RMK A01 T00631039  RH  048%=      5-min Rain = 0
KAI1 192348Z 01010KT 06/M04 A3027 RMK A01 T00621039  RH  048%=      5-min Rain = 0
KAI1 192349Z 01010KT 06/M04 A3027 RMK A01 T00611039  RH  049%=      5-min Rain = 0
KAI1 192350Z 01010KT 06/M04 A3027 RMK A01 T00611039  RH  049%=      5-min Rain = 0
KAI1 192351Z 01009KT 06/M04 A3027 RMK A01 T00601039  RH  049%=      5-min Rain = 0
KAI1 192352Z 01009KT 06/M04 A3027 RMK A01 T00591039  RH  049%=      5-min Rain = 0
KAI1 192353Z 00008KT 06/M04 A3027 RMK A01 T00581039  RH  050%=      5-min Rain = 0
KAI1 192354Z 01008KT 06/M04 A3027 RMK A01 T00571039  RH  050%=      5-min Rain = 0
KAI1 192355Z 01008KT 06/M04 A3027 RMK A01 T00561039  RH  050%=      5-min Rain = 0
KAI1 192356Z 01008KT 06/M04 A3027 RMK A01 T00551039  RH  051%=      5-min Rain = 0
KAI1 192357Z 01008KT 05/M04 A3027 RMK A01 T00541040  RH  051%=      5-min Rain = 0
KAI1 192358Z 01008KT 05/M04 A3027 RMK A01 T00521040  RH  051%=      5-min Rain = 0
KAI1 192359Z 01007KT 05/M04 A3027 RMK A01 T00511040  RH  052%=      5-min Rain = 0
KAI1 200000Z 01007KT 05/M04 A3027 RMK A01 T00491040  RH  052%=      5-min Rain = 0
KAI1 200001Z 01007KT 05/M04 A3027 RMK A01 T00481041  RH  053%=      5-min Rain = 0
KAI1 200002Z 01007KT 05/M04 A3027 RMK A01 T00461041  RH  053%=      5-min Rain = 0
KAI1 200003Z 01006KT 05/M04 A3027 RMK A01 T00461041  RH  053%=      5-min Rain = 0
KAI1 200004Z 01006KT 05/M04 A3027 RMK A01 T00451042  RH  053%=      5-min Rain = 0
KAI1 200005Z 02006KT 04/M04 A3027 RMK A01 T00441043  RH  053%=      5-min Rain = 0
KAI1 200006Z 02006KT 04/M04 A3027 RMK A01 T00431044  RH  053%=      5-min Rain = 0
KAI1 200007Z 02007KT 04/M04 A3027 RMK A01 T00421044  RH  053%=      5-min Rain = 0
KAI1 200008Z 02007KT 04/M05 A3027 RMK A01 T00411045  RH  053%=      5-min Rain = 0
KAI1 200009Z 02007KT 04/M05 A3027 RMK A01 T00411045  RH  053%=      5-min Rain = 0
KAI1 200010Z 02007KT 04/M05 A3027 RMK A01 T00391046  RH  054%=      5-min Rain = 0
KAI1 200011Z 02007KT 04/M05 A3027 RMK A01 T00381046  RH  054%=      5-min Rain = 0
KAI1 200012Z 02007KT 04/M05 A3027 RMK A01 T00371047  RH  054%=      5-min Rain = 0
KAI1 200013Z 02007KT 04/M05 A3027 RMK A01 T00351048  RH  054%=      5-min Rain = 0
KAI1 200014Z 02006KT 03/M05 A3027 RMK A01 T00341049  RH  055%=      5-min Rain = 0
KAI1 200015Z 02006KT 03/M05 A3027 RMK A01 T00331049  RH  055%=      5-min Rain = 0
KAI1 200016Z 02006KT 03/M05 A3027 RMK A01 T00331050  RH  055%=      5-min Rain = 0
KAI1 200017Z 02006KT 03/M05 A3027 RMK A01 T00331050  RH  055%=      5-min Rain = 0
KAI1 200018Z 02005KT 03/M05 A3027 RMK A01 T00321050  RH  055%=      5-min Rain = 0
KAI1 200019Z 02005KT 03/M05 A3027 RMK A01 T00331050  RH  055%=      5-min Rain = 0
KAI1 200020Z 02005KT 03/M05 A3027 RMK A01 T00331050  RH  055%=      5-min Rain = 0
KAI1 200021Z 02006KT 03/M05 A3027 RMK A01 T00331050  RH  054%=      5-min Rain = 0
KAI1 200022Z 02006KT 03/M05 A3027 RMK A01 T00341049  RH  054%=      5-min Rain = 0
KAI1 200023Z 02007KT 04/M05 A3027 RMK A01 T00361048  RH  054%=      5-min Rain = 0
KAI1 200024Z 03007KT 04/M05 A3027 RMK A01 T00371048  RH  054%=      5-min Rain = 0
KAI1 200025Z 03007KT 04/M05 A3027 RMK A01 T00381048  RH  053%=      5-min Rain = 0
KAI1 200026Z 03008KT 04/M05 A3027 RMK A01 T00381048  RH  053%=      5-min Rain = 0
KAI1 200027Z 03008KT 04/M05 A3027 RMK A01 T00371049  RH  053%=      5-min Rain = 0
KAI1 200028Z 03008KT 03/M05 A3027 RMK A01 T00341050  RH  054%=      5-min Rain = 0
KAI1 200029Z 03007KT 03/M05 A3027 RMK A01 T00301052  RH  055%=      5-min Rain = 0
KAI1 200030Z 03007KT 03/M05 A3027 RMK A01 T00271053  RH  056%=      5-min Rain = 0
KAI1 200031Z 03007KT 03/M05 A3027 RMK A01 T00251053  RH  056%=      5-min Rain = 0
KAI1 200032Z 03007KT 02/M05 A3027 RMK A01 T00231054  RH  057%=      5-min Rain = 0
KAI1 200033Z 03007KT 02/M05 A3027 RMK A01 T00221054  RH  057%=      5-min Rain = 0
KAI1 200034Z 03007KT 02/M05 A3027 RMK A01 T00221054  RH  057%=      5-min Rain = 0
KAI1 200035Z 03007KT 02/M05 A3027 RMK A01 T00221053  RH  058%=      5-min Rain = 0
KAI1 200036Z 02007KT 02/M05 A3028 RMK A01 T00231053  RH  058%=      5-min Rain = 0
KAI1 200037Z 02008KT 02/M05 A3027 RMK A01 T00241053  RH  057%=      5-min Rain = 0
KAI1 200038Z 02008KT 03/M05 A3027 RMK A01 T00251053  RH  056%=      5-min Rain = 0
KAI1 200039Z 02008KT 03/M05 A3027 RMK A01 T00251053  RH  056%=      5-min Rain = 0
KAI1 200040Z 02008KT 02/M05 A3027 RMK A01 T00241054  RH  056%=      5-min Rain = 0
KAI1 200041Z 02008KT 02/M06 A3027 RMK A01 T00221055  RH  057%=      5-min Rain = 0
KAI1 200042Z 02008KT 02/M06 A3027 RMK A01 T00211056  RH  057%=      5-min Rain = 0
KAI1 200043Z 02008KT 02/M06 A3027 RMK A01 T00201056  RH  057%=      5-min Rain = 0
KAI1 200044Z 02008KT 02/M06 A3027 RMK A01 T00191056  RH  057%=      5-min Rain = 0
KAI1 200045Z 02008KT 02/M06 A3027 RMK A01 T00191056  RH  057%=      5-min Rain = 0
KAI1 200046Z 02008KT 02/M06 A3027 RMK A01 T00201055  RH  058%=      5-min Rain = 0
KAI1 200047Z 02008KT 02/M05 A3027 RMK A01 T00211054  RH  058%=      5-min Rain = 0
KAI1 200048Z 02008KT 02/M06 A3027 RMK A01 T00211055  RH  057%=      5-min Rain = 0
KAI1 200049Z 02008KT 02/M06 A3027 RMK A01 T00211055  RH  057%=      5-min Rain = 0
KAI1 200050Z 02008KT 02/M06 A3027 RMK A01 T00191056  RH  057%=      5-min Rain = 0
KAI1 200051Z 02008KT 02/M06 A3027 RMK A01 T00181056  RH  058%=      5-min Rain = 0
KAI1 200052Z 02008KT 02/M06 A3027 RMK A01 T00171056  RH  058%=      5-min Rain = 0
KAI1 200053Z 02008KT 02/M06 A3027 RMK A01 T00171056  RH  058%=      5-min Rain = 0
KAI1 200054Z 02008KT 02/M06 A3027 RMK A01 T00171056  RH  058%=      5-min Rain = 0
KAI1 200055Z 02008KT 02/M06 A3027 RMK A01 T00171056  RH  058%=      5-min Rain = 0
KAI1 200056Z 02007KT 02/M06 A3027 RMK A01 T00171056  RH  058%=      5-min Rain = 0
KAI1 200057Z 03007KT 02/M06 A3027 RMK A01 T00161057  RH  058%=      5-min Rain = 0
KAI1 200058Z 03007KT 02/M06 A3027 RMK A01 T00151057  RH  059%=      5-min Rain = 0
KAI1 200059Z 03007KT 02/M06 A3027 RMK A01 T00151057  RH  059%=      5-min Rain = 0
KAI1 200100Z 03006KT 02/M06 A3027 RMK A01 T00151057  RH  058%=      5-min Rain = 0
KAI1 200101Z 03006KT 02/M06 A3028 RMK A01 T00151058  RH  059%=      5-min Rain = 0
KAI1 200102Z 03006KT 01/M06 A3028 RMK A01 T00141058  RH  059%=      5-min Rain = 0
KAI1 200103Z 03007KT 01/M06 A3028 RMK A01 T00141058  RH  059%=      5-min Rain = 0
KAI1 200104Z 03007KT 01/M06 A3028 RMK A01 T00141058  RH  059%=      5-min Rain = 0
KAI1 200105Z 03007KT 01/M06 A3028 RMK A01 T00141057  RH  059%=      5-min Rain = 0
KAI1 200106Z 03007KT 02/M06 A3028 RMK A01 T00151057  RH  059%=      5-min Rain = 0
KAI1 200107Z 03007KT 02/M06 A3028 RMK A01 T00161056  RH  059%=      5-min Rain = 0
KAI1 200108Z 03008KT 02/M06 A3028 RMK A01 T00171057  RH  058%=      5-min Rain = 0
KAI1 200109Z 04008KT 02/M06 A3028 RMK A01 T00161058  RH  058%=      5-min Rain = 0
KAI1 200110Z 03007KT 01/M06 A3028 RMK A01 T00141059  RH  059%=      5-min Rain = 0
KAI1 200111Z 03008KT 01/M06 A3028 RMK A01 T00121059  RH  059%=      5-min Rain = 0
KAI1 200112Z 03008KT 01/M06 A3028 RMK A01 T00111060  RH  059%=      5-min Rain = 0
KAI1 200113Z 03008KT 01/M06 A3027 RMK A01 T00101059  RH  060%=      5-min Rain = 0
KAI1 200114Z 03008KT 01/M06 A3027 RMK A01 T00101059  RH  060%=      5-min Rain = 0
KAI1 200115Z 03009KT 01/M06 A3027 RMK A01 T00091059  RH  060%=      5-min Rain = 0
KAI1 200116Z 03009KT 01/M06 A3027 RMK A01 T00071059  RH  061%=      5-min Rain = 0
KAI1 200117Z 03009KT 01/M06 A3027 RMK A01 T00061059  RH  062%=      5-min Rain = 0
KAI1 200118Z 03009KT 01/M06 A3027 RMK A01 T00051058  RH  063%=      5-min Rain = 0
KAI1 200119Z 03009KT 01/M06 A3027 RMK A01 T00051057  RH  063%=      5-min Rain = 0
KAI1 200120Z 03009KT 01/M06 A3027 RMK A01 T00051056  RH  063%=      5-min Rain = 0
KAI1 200121Z 03008KT 01/M06 A3027 RMK A01 T00051056  RH  064%=      5-min Rain = 0
KAI1 200122Z 03008KT 01/M06 A3027 RMK A01 T00051057  RH  063%=      5-min Rain = 0
KAI1 200123Z 03008KT 00/M06 A3027 RMK A01 T00041058  RH  063%=      5-min Rain = 0
KAI1 200124Z 03007KT 00/M06 A3027 RMK A01 T00041058  RH  063%=      5-min Rain = 0
KAI1 200125Z 03007KT 00/M06 A3027 RMK A01 T00041059  RH  063%=      5-min Rain = 0
KAI1 200126Z 03007KT 00/M06 A3027 RMK A01 T00041058  RH  063%=      5-min Rain = 0
KAI1 200127Z 03007KT 01/M06 A3027 RMK A01 T00051057  RH  063%=      5-min Rain = 0
KAI1 200128Z 03007KT 01/M06 A3027 RMK A01 T00061057  RH  063%=      5-min Rain = 0
KAI1 200129Z 04007KT 01/M06 A3026 RMK A01 T00071057  RH  062%=      5-min Rain = 0
KAI1 200130Z 04007KT 01/M06 A3026 RMK A01 T00081057  RH  062%=      5-min Rain = 0
KAI1 200131Z 04006KT 01/M06 A3026 RMK A01 T00081058  RH  061%=      5-min Rain = 0
KAI1 200132Z 04006KT 01/M06 A3026 RMK A01 T00081059  RH  061%=      5-min Rain = 0
KAI1 200133Z 05006KT 01/M06 A3026 RMK A01 T00081058  RH  061%=      5-min Rain = 0
KAI1 200134Z 05006KT 01/M06 A3026 RMK A01 T00081058  RH  061%=      5-min Rain = 0
KAI1 200135Z 05006KT 01/M06 A3026 RMK A01 T00091058  RH  061%=      5-min Rain = 0
KAI1 200136Z 06006KT 01/M06 A3026 RMK A01 T00091059  RH  060%=      5-min Rain = 0
KAI1 200137Z 06005KT 01/M06 A3026 RMK A01 T00081061  RH  060%=      5-min Rain = 0
KAI1 200138Z 07005KT 01/M06 A3026 RMK A01 T00071061  RH  060%=      5-min Rain = 0
KAI1 200139Z 07005KT 01/M06 A3026 RMK A01 T00071062  RH  060%=      5-min Rain = 0
KAI1 200140Z 07005KT 01/M06 A3026 RMK A01 T00071063  RH  060%=      5-min Rain = 0
KAI1 200141Z 08005KT 01/M06 A3026 RMK A01 T00071062  RH  060%=      5-min Rain = 0
KAI1 200142Z 08005KT 01/M06 A3026 RMK A01 T00071061  RH  060%=      5-min Rain = 0
KAI1 200143Z 08005KT 01/M06 A3026 RMK A01 T00061059  RH  062%=      5-min Rain = 0
KAI1 200144Z 08006KT 01/M06 A3026 RMK A01 T00061057  RH  063%=      5-min Rain = 0
KAI1 200145Z 07006KT 01/M06 A3025 RMK A01 T00061056  RH  063%=      5-min Rain = 0
KAI1 200146Z 07006KT 01/M06 A3025 RMK A01 T00071056  RH  063%=      5-min Rain = 0
KAI1 200147Z 07007KT 01/M06 A3025 RMK A01 T00061058  RH  062%=      5-min Rain = 0
KAI1 200148Z 07007KT 00/M06 A3025 RMK A01 T00041060  RH  062%=      5-min Rain = 0
KAI1 200149Z 07006KT 00/M06 A3025 RMK A01 T00011063  RH  062%=      5-min Rain = 0
KAI1 200150Z 08006KT M00/M06 A3025 RMK A01 T10021064  RH  063%=      5-min Rain = 0
KAI1 200151Z 08005KT M00/M06 A3025 RMK A01 T10041063  RH  064%=      5-min Rain = 0
KAI1 200152Z 08005KT M01/M06 A3025 RMK A01 T10051063  RH  065%=      5-min Rain = 0
KAI1 200153Z 09005KT M01/M06 A3025 RMK A01 T10051062  RH  065%=      5-min Rain = 0
KAI1 200154Z 09005KT M01/M06 A3025 RMK A01 T10051060  RH  066%=      5-min Rain = 0
KAI1 200155Z 09005KT M00/M06 A3025 RMK A01 T10041059  RH  067%=      5-min Rain = 0
KAI1 200156Z 09004KT M00/M06 A3025 RMK A01 T10031059  RH  066%=      5-min Rain = 0
KAI1 200157Z 08005KT M00/M06 A3025 RMK A01 T10011057  RH  066%=      5-min Rain = 0
KAI1 200158Z 08006KT 00/M06 A3025 RMK A01 T00021055  RH  066%=      5-min Rain = 0
KAI1 200159Z 07006KT 01/M06 A3025 RMK A01 T00051055  RH  064%=      5-min Rain = 0
KAI1 200200Z 07007KT 01/M06 A3025 RMK A01 T00071055  RH  063%=      5-min Rain = 0
KAI1 200201Z 07007KT 01/M06 A3025 RMK A01 T00071055  RH  063%=      5-min Rain = 0
KAI1 200202Z 07006KT 01/M06 A3025 RMK A01 T00081055  RH  063%=      5-min Rain = 0
KAI1 200203Z 07006KT 01/M06 A3026 RMK A01 T00061057  RH  063%=      5-min Rain = 0
KAI1 200204Z 08006KT 00/M06 A3026 RMK A01 T00041058  RH  063%=      5-min Rain = 0
KAI1 200205Z 08006KT 00/M06 A3026 RMK A01 T00021060  RH  063%=      5-min Rain = 0
KAI1 200206Z 08005KT 00/M06 A3026 RMK A01 T00011059  RH  064%=      5-min Rain = 0
KAI1 200207Z 08005KT 00/06 A3026 RMK A01 T00000-59  RH  065%=      5-min Rain = 0
KAI1 200208Z 08005KT 00/06 A3026 RMK A01 T00000-57  RH  065%=      5-min Rain = 0
KAI1 200209Z 08005KT 00/06 A3026 RMK A01 T00000-57  RH  065%=      5-min Rain = 0
KAI1 200210Z 08006KT 00/M06 A3026 RMK A01 T00011056  RH  065%=      5-min Rain = 0
KAI1 200211Z 08006KT 00/M06 A3027 RMK A01 T00031055  RH  065%=      5-min Rain = 0
KAI1 200212Z 08006KT 01/M06 A3027 RMK A01 T00051055  RH  064%=      5-min Rain = 0
KAI1 200213Z 08006KT 01/M06 A3027 RMK A01 T00071055  RH  063%=      5-min Rain = 0
KAI1 200214Z 08006KT 01/M06 A3027 RMK A01 T00081055  RH  063%=      5-min Rain = 0
KAI1 200215Z 08006KT 01/M06 A3027 RMK A01 T00071057  RH  062%=      5-min Rain = 0
KAI1 200216Z 09006KT 01/M06 A3027 RMK A01 T00051058  RH  062%=      5-min Rain = 0
KAI1 200217Z 09006KT 00/M06 A3027 RMK A01 T00041058  RH  063%=      5-min Rain = 0
KAI1 200218Z 08006KT 00/M06 A3027 RMK A01 T00031058  RH  064%=      5-min Rain = 0
KAI1 200219Z 08006KT 00/M06 A3027 RMK A01 T00031058  RH  064%=      5-min Rain = 0
KAI1 200220Z 08006KT 00/M06 A3027 RMK A01 T00031058  RH  064%=      5-min Rain = 0
KAI1 200221Z 08006KT 01/M06 A3027 RMK A01 T00061055  RH  064%=      5-min Rain = 0
KAI1 200222Z 08007KT 01/M05 A3027 RMK A01 T00091054  RH  063%=      5-min Rain = 0
KAI1 200223Z 07007KT 01/M05 A3027 RMK A01 T00121054  RH  062%=      5-min Rain = 0
KAI1 200224Z 07007KT 01/M06 A3027 RMK A01 T00121056  RH  061%=      5-min Rain = 0
KAI1 200225Z 07006KT 01/M06 A3027 RMK A01 T00111057  RH  060%=      5-min Rain = 0
KAI1 200226Z 08006KT 01/M06 A3027 RMK A01 T00111057  RH  061%=      5-min Rain = 0
KAI1 200227Z 08006KT 01/M06 A3027 RMK A01 T00111056  RH  061%=      5-min Rain = 0
KAI1 200228Z 07006KT 01/M06 A3027 RMK A01 T00111056  RH  061%=      5-min Rain = 0
KAI1 200229Z 08006KT 01/M06 A3027 RMK A01 T00121055  RH  061%=      5-min Rain = 0
KAI1 200230Z 09005KT 01/M06 A3027 RMK A01 T00121056  RH  061%=      5-min Rain = 0
KAI1 200231Z 08005KT 01/M06 A3027 RMK A01 T00111057  RH  061%=      5-min Rain = 0
KAI1 200232Z 08005KT 01/M06 A3028 RMK A01 T00111056  RH  061%=      5-min Rain = 0
KAI1 200233Z 08005KT 01/M06 A3028 RMK A01 T00101056  RH  061%=      5-min Rain = 0
KAI1 200234Z 09004KT 01/M06 A3028 RMK A01 T00101056  RH  061%=      5-min Rain = 0
KAI1 200235Z 09004KT 01/M06 A3028 RMK A01 T00111056  RH  061%=      5-min Rain = 0
KAI1 200236Z 10005KT 01/M06 A3028 RMK A01 T00101056  RH  061%=      5-min Rain = 0
KAI1 200237Z 10004KT 01/M06 A3028 RMK A01 T00101056  RH  061%=      5-min Rain = 0
KAI1 200238Z 10005KT 01/M06 A3028 RMK A01 T00091056  RH  062%=      5-min Rain = 0
KAI1 200239Z 10005KT 01/M06 A3028 RMK A01 T00081056  RH  062%=      5-min Rain = 0
KAI1 200240Z 10005KT 01/M06 A3028 RMK A01 T00081056  RH  062%=      5-min Rain = 0
KAI1 200241Z 10005KT 01/M06 A3028 RMK A01 T00081056  RH  063%=      5-min Rain = 0
KAI1 200242Z 10005KT 01/M06 A3028 RMK A01 T00071056  RH  063%=      5-min Rain = 0
KAI1 200243Z 10005KT 01/M06 A3028 RMK A01 T00061055  RH  063%=      5-min Rain = 0
KAI1 200244Z 09005KT 01/M06 A3029 RMK A01 T00051056  RH  063%=      5-min Rain = 0
KAI1 200245Z 09005KT 00/M06 A3029 RMK A01 T00041056  RH  064%=      5-min Rain = 0
KAI1 200246Z 10005KT 00/M06 A3029 RMK A01 T00031057  RH  064%=      5-min Rain = 0
KAI1 200247Z 10005KT 00/M06 A3029 RMK A01 T00021057  RH  064%=      5-min Rain = 0
KAI1 200248Z 10005KT 00/M06 A3028 RMK A01 T00011059  RH  064%=      5-min Rain = 0
KAI1 200249Z 10005KT M00/M06 A3028 RMK A01 T10011059  RH  065%=      5-min Rain = 0
KAI1 200250Z 10004KT M00/M06 A3028 RMK A01 T10011058  RH  066%=      5-min Rain = 0
KAI1 200251Z 10004KT M00/M06 A3028 RMK A01 T10021058  RH  066%=      5-min Rain = 0
KAI1 200252Z 10004KT M00/M06 A3028 RMK A01 T10021058  RH  066%=      5-min Rain = 0
KAI1 200253Z 10004KT M00/M06 A3028 RMK A01 T10021058  RH  066%=      5-min Rain = 0
KAI1 200254Z 10004KT M00/M06 A3028 RMK A01 T10021058  RH  066%=      5-min Rain = 0
KAI1 200255Z 09004KT M00/M06 A3028 RMK A01 T10021058  RH  066%=      5-min Rain = 0
KAI1 200256Z 09004KT M00/M06 A3028 RMK A01 T10011057  RH  066%=      5-min Rain = 0
KAI1 200257Z 09004KT M00/M06 A3028 RMK A01 T10011058  RH  066%=      5-min Rain = 0
KAI1 200258Z 09004KT M00/M06 A3028 RMK A01 T10011058  RH  066%=      5-min Rain = 0
KAI1 200259Z 09004KT M00/M06 A3028 RMK A01 T10011058  RH  066%=      5-min Rain = 0
KAI1 200300Z 09004KT M00/M06 A3028 RMK A01 T10011058  RH  065%=      5-min Rain = 0
KAI1 200301Z 10005KT M00/M06 A3028 RMK A01 T10011058  RH  065%=      5-min Rain = 0
KAI1 200302Z 10005KT 00/06 A3028 RMK A01 T00000-57  RH  065%=      5-min Rain = 0
KAI1 200303Z 10005KT 00/M06 A3028 RMK A01 T00011057  RH  065%=      5-min Rain = 0
KAI1 200304Z 10005KT 00/06 A3028 RMK A01 T00000-58  RH  065%=      5-min Rain = 0
KAI1 200305Z 10005KT 00/06 A3028 RMK A01 T00000-58  RH  065%=      5-min Rain = 0
KAI1 200306Z 09005KT 00/06 A3028 RMK A01 T00-00-58  RH  065%=      5-min Rain = 0
KAI1 200307Z 09005KT M00/M06 A3027 RMK A01 T10011058  RH  065%=      5-min Rain = 0
KAI1 200308Z 09006KT 00/06 A3027 RMK A01 T00-00-58  RH  065%=      5-min Rain = 0
KAI1 200309Z 09006KT M00/M06 A3027 RMK A01 T10011058  RH  065%=      5-min Rain = 0
KAI1 200310Z 09006KT M00/M06 A3028 RMK A01 T10021059  RH  065%=      5-min Rain = 0
KAI1 200311Z 10006KT M00/M06 A3028 RMK A01 T10031061  RH  065%=      5-min Rain = 0
KAI1 200312Z 11005KT M00/M06 A3028 RMK A01 T10041062  RH  065%=      5-min Rain = 0
KAI1 200313Z 11005KT M01/M06 A3029 RMK A01 T10051062  RH  065%=      5-min Rain = 0
KAI1 200314Z 11005KT M01/M06 A3029 RMK A01 T10061061  RH  066%=      5-min Rain = 0
KAI1 200315Z 10005KT M01/M06 A3029 RMK A01 T10061060  RH  067%=      5-min Rain = 0
KAI1 200316Z 10005KT M01/M06 A3029 RMK A01 T10071059  RH  068%=      5-min Rain = 0
KAI1 200317Z 10005KT M01/M06 A3029 RMK A01 T10071059  RH  068%=      5-min Rain = 0
KAI1 200318Z 10005KT M01/M06 A3029 RMK A01 T10071059  RH  068%=      5-min Rain = 0
KAI1 200319Z 11005KT M01/M06 A3029 RMK A01 T10061058  RH  068%=      5-min Rain = 0
KAI1 200320Z 11006KT M01/M06 A3029 RMK A01 T10051058  RH  067%=      5-min Rain = 0
KAI1 200321Z 11006KT M01/M06 A3028 RMK A01 T10051058  RH  067%=      5-min Rain = 0
KAI1 200322Z 11006KT M00/M06 A3028 RMK A01 T10041058  RH  067%=      5-min Rain = 0
KAI1 200323Z 11006KT M00/M06 A3028 RMK A01 T10031058  RH  067%=      5-min Rain = 0
KAI1 200324Z 11007KT M00/M06 A3028 RMK A01 T10031058  RH  066%=      5-min Rain = 0
KAI1 200325Z 11008KT M00/M06 A3028 RMK A01 T10021058  RH  066%=      5-min Rain = 0
KAI1 200326Z 11009KT M00/M06 A3027 RMK A01 T10031060  RH  065%=      5-min Rain = 0
KAI1 200327Z 11009KT M01/M07 A3027 RMK A01 T10061066  RH  064%=      5-min Rain = 0
KAI1 200328Z 11009KT M01/M07 A3026 RMK A01 T10091069  RH  064%=      5-min Rain = 0
KAI1 200329Z 11009KT M01/M07 A3026 RMK A01 T10111069  RH  065%=      5-min Rain = 0
KAI1 200330Z 11008KT M01/M07 A3027 RMK A01 T10121068  RH  066%=      5-min Rain = 0
KAI1 200331Z 11008KT M01/M07 A3027 RMK A01 T10121067  RH  066%=      5-min Rain = 0
KAI1 200332Z 11008KT M01/M07 A3027 RMK A01 T10121066  RH  067%=      5-min Rain = 0
KAI1 200333Z 12008KT M01/M07 A3027 RMK A01 T10121065  RH  067%=      5-min Rain = 0
KAI1 200334Z 12008KT M01/M07 A3026 RMK A01 T10121065  RH  067%=      5-min Rain = 0
KAI1 200335Z 12008KT M01/M06 A3026 RMK A01 T10121064  RH  068%=      5-min Rain = 0
KAI1 200336Z 12008KT M01/M06 A3027 RMK A01 T10111063  RH  068%=      5-min Rain = 0
KAI1 200337Z 12007KT M01/M06 A3027 RMK A01 T10111063  RH  068%=      5-min Rain = 0
KAI1 200338Z 13006KT M01/M06 A3027 RMK A01 T10101063  RH  068%=      5-min Rain = 0
KAI1 200339Z 13006KT M01/M06 A3027 RMK A01 T10101063  RH  067%=      5-min Rain = 0
KAI1 200340Z 13007KT M01/M06 A3027 RMK A01 T10101064  RH  067%=      5-min Rain = 0
KAI1 200341Z 14007KT M01/M07 A3027 RMK A01 T10111065  RH  067%=      5-min Rain = 0
KAI1 200342Z 14008KT M01/M07 A3027 RMK A01 T10121065  RH  067%=      5-min Rain = 0
KAI1 200343Z 13008KT M01/M07 A3027 RMK A01 T10131066  RH  067%=      5-min Rain = 0
KAI1 200344Z 13008KT M01/M07 A3027 RMK A01 T10131066  RH  067%=      5-min Rain = 0
KAI1 200345Z 13008KT M01/M07 A3027 RMK A01 T10141066  RH  068%=      5-min Rain = 0
KAI1 200346Z 13007KT M02/M07 A3027 RMK A01 T10151066  RH  068%=      5-min Rain = 0
KAI1 200347Z 13007KT M02/M07 A3027 RMK A01 T10151066  RH  068%=      5-min Rain = 0
KAI1 200348Z 13007KT M02/M07 A3027 RMK A01 T10151066  RH  068%=      5-min Rain = 0
KAI1 200349Z 12007KT M02/M07 A3027 RMK A01 T10161067  RH  068%=      5-min Rain = 0
KAI1 200350Z 12007KT M02/M07 A3027 RMK A01 T10171067  RH  068%=      5-min Rain = 0
KAI1 200351Z 12008KT M02/M07 A3026 RMK A01 T10181068  RH  068%=      5-min Rain = 0
KAI1 200352Z 12008KT M02/M07 A3026 RMK A01 T10191069  RH  069%=      5-min Rain = 0
KAI1 200353Z 11008KT M02/M07 A3026 RMK A01 T10201069  RH  069%=      5-min Rain = 0
KAI1 200354Z 11007KT M02/M07 A3027 RMK A01 T10211070  RH  069%=      5-min Rain = 0
KAI1 200355Z 11007KT M02/M07 A3027 RMK A01 T10221070  RH  070%=      5-min Rain = 0
KAI1 200356Z 11007KT M02/M07 A3027 RMK A01 T10231069  RH  070%=      5-min Rain = 0
KAI1 200357Z 12008KT M02/M07 A3027 RMK A01 T10231069  RH  071%=      5-min Rain = 0
KAI1 200358Z 12008KT M02/M07 A3027 RMK A01 T10231069  RH  071%=      5-min Rain = 0
KAI1 200359Z 11008KT M02/M07 A3027 RMK A01 T10241069  RH  071%=      5-min Rain = 0
KAI1 200400Z 11008KT M02/M07 A3027 RMK A01 T10241069  RH  071%=      5-min Rain = 0
KAI1 200401Z 11008KT M02/M07 A3027 RMK A01 T10231068  RH  071%=      5-min Rain = 0
KAI1 200402Z 11008KT M02/M07 A3027 RMK A01 T10221068  RH  071%=      5-min Rain = 0
KAI1 200403Z 12009KT M02/M07 A3027 RMK A01 T10221068  RH  071%=      5-min Rain = 0
KAI1 200404Z 12008KT M02/M07 A3027 RMK A01 T10211068  RH  071%=      5-min Rain = 0
KAI1 200405Z 12008KT M02/M07 A3027 RMK A01 T10211068  RH  071%=      5-min Rain = 0
KAI1 200406Z 12007KT M02/M07 A3028 RMK A01 T10211068  RH  071%=      5-min Rain = 0
KAI1 200407Z 12007KT M02/M07 A3028 RMK A01 T10211068  RH  071%=      5-min Rain = 0
KAI1 200408Z 12006KT M02/M07 A3028 RMK A01 T10211067  RH  071%=      5-min Rain = 0
KAI1 200409Z 12006KT M02/M07 A3028 RMK A01 T10211067  RH  071%=      5-min Rain = 0
KAI1 200410Z 12007KT M02/M07 A3028 RMK A01 T10211067  RH  071%=      5-min Rain = 0
KAI1 200411Z 12007KT M02/M07 A3027 RMK A01 T10221068  RH  071%=      5-min Rain = 0
KAI1 200412Z 13007KT M02/M07 A3027 RMK A01 T10221068  RH  071%=      5-min Rain = 0
KAI1 200413Z 13007KT M02/M07 A3027 RMK A01 T10231069  RH  070%=      5-min Rain = 0
KAI1 200414Z 13007KT M02/M07 A3027 RMK A01 T10231069  RH  071%=      5-min Rain = 0
KAI1 200415Z 13007KT M02/M07 A3027 RMK A01 T10241070  RH  071%=      5-min Rain = 0
KAI1 200416Z 13007KT M03/M07 A3027 RMK A01 T10251071  RH  071%=      5-min Rain = 0
KAI1 200417Z 13007KT M03/M07 A3027 RMK A01 T10251070  RH  071%=      5-min Rain = 0
KAI1 200418Z 13007KT M03/M07 A3026 RMK A01 T10251071  RH  071%=      5-min Rain = 0
KAI1 200419Z 13007KT M03/M07 A3026 RMK A01 T10261070  RH  071%=      5-min Rain = 0
KAI1 200420Z 13007KT M03/M07 A3026 RMK A01 T10261070  RH  072%=      5-min Rain = 0
KAI1 200421Z 13007KT M03/M07 A3027 RMK A01 T10261070  RH  072%=      5-min Rain = 0
KAI1 200422Z 13007KT M03/M07 A3027 RMK A01 T10261070  RH  072%=      5-min Rain = 0
KAI1 200423Z 13007KT M03/M07 A3027 RMK A01 T10271070  RH  072%=      5-min Rain = 0
KAI1 200424Z 13007KT M03/M07 A3027 RMK A01 T10271070  RH  072%=      5-min Rain = 0
KAI1 200425Z 13007KT M03/M07 A3027 RMK A01 T10271070  RH  072%=      5-min Rain = 0
KAI1 200426Z 14007KT M03/M07 A3027 RMK A01 T10281071  RH  072%=      5-min Rain = 0
KAI1 200427Z 14007KT M03/M07 A3027 RMK A01 T10281070  RH  072%=      5-min Rain = 0
KAI1 200428Z 14007KT M03/M07 A3027 RMK A01 T10281070  RH  073%=      5-min Rain = 0
KAI1 200429Z 14007KT M03/M07 A3027 RMK A01 T10281070  RH  073%=      5-min Rain = 0
KAI1 200430Z 14007KT M03/M07 A3027 RMK A01 T10281070  RH  073%=      5-min Rain = 0
KAI1 200431Z 14007KT M03/M07 A3027 RMK A01 T10291071  RH  073%=      5-min Rain = 0
KAI1 200432Z 14007KT M03/M07 A3027 RMK A01 T10291070  RH  073%=      5-min Rain = 0
KAI1 200433Z 14008KT M03/M07 A3027 RMK A01 T10291071  RH  073%=      5-min Rain = 0
KAI1 200434Z 14007KT M03/M07 A3027 RMK A01 T10291070  RH  073%=      5-min Rain = 0
KAI1 200435Z 14007KT M03/M07 A3027 RMK A01 T10291070  RH  073%=      5-min Rain = 0
KAI1 200436Z 14006KT M03/M07 A3027 RMK A01 T10291070  RH  073%=      5-min Rain = 0
KAI1 200437Z 14006KT M03/M07 A3028 RMK A01 T10291071  RH  073%=      5-min Rain = 0
KAI1 200438Z 14006KT M03/M07 A3028 RMK A01 T10291071  RH  073%=      5-min Rain = 0
KAI1 200439Z 14006KT M03/M07 A3027 RMK A01 T10291070  RH  073%=      5-min Rain = 0
KAI1 200440Z 13006KT M03/M07 A3027 RMK A01 T10281070  RH  073%=      5-min Rain = 0
KAI1 200441Z 13006KT M03/M07 A3027 RMK A01 T10281070  RH  073%=      5-min Rain = 0
KAI1 200442Z 13006KT M03/M07 A3027 RMK A01 T10281069  RH  073%=      5-min Rain = 0
KAI1 200443Z 13006KT M03/M07 A3027 RMK A01 T10281069  RH  073%=      5-min Rain = 0
KAI1 200444Z 14006KT M03/M07 A3027 RMK A01 T10281070  RH  073%=      5-min Rain = 0
KAI1 200445Z 14007KT M03/M07 A3027 RMK A01 T10281070  RH  073%=      5-min Rain = 0
KAI1 200446Z 14007KT M03/M07 A3027 RMK A01 T10291071  RH  073%=      5-min Rain = 0
KAI1 200447Z 15007KT M03/M07 A3027 RMK A01 T10301071  RH  073%=      5-min Rain = 0
KAI1 200448Z 15008KT M03/M07 A3027 RMK A01 T10311071  RH  074%=      5-min Rain = 0
KAI1 200449Z 14008KT M03/M07 A3027 RMK A01 T10311070  RH  074%=      5-min Rain = 0
KAI1 200450Z 14008KT M03/M07 A3027 RMK A01 T10311069  RH  075%=      5-min Rain = 0
KAI1 200451Z 14007KT M03/M07 A3027 RMK A01 T10311069  RH  075%=      5-min Rain = 0
KAI1 200452Z 14007KT M03/M07 A3027 RMK A01 T10311069  RH  075%=      5-min Rain = 0
KAI1 200453Z 14007KT M03/M07 A3027 RMK A01 T10311069  RH  075%=      5-min Rain = 0
KAI1 200454Z 15007KT M03/M07 A3027 RMK A01 T10301069  RH  075%=      5-min Rain = 0
KAI1 200455Z 15007KT M03/M07 A3027 RMK A01 T10301069  RH  075%=      5-min Rain = 0
KAI1 200456Z 15007KT M03/M07 A3027 RMK A01 T10301069  RH  075%=      5-min Rain = 0
KAI1 200457Z 15007KT M03/M07 A3027 RMK A01 T10301069  RH  075%=      5-min Rain = 0
KAI1 200458Z 15007KT M03/M07 A3027 RMK A01 T10311070  RH  074%=      5-min Rain = 0
KAI1 200459Z 15006KT M03/M07 A3028 RMK A01 T10321071  RH  074%=      5-min Rain = 0
KAI1 200500Z 15007KT M03/M07 A3028 RMK A01 T10321072  RH  074%=      5-min Rain = 0
KAI1 200501Z 15007KT M03/M07 A3028 RMK A01 T10331073  RH  074%=      5-min Rain = 0
KAI1 200502Z 15007KT M03/M07 A3028 RMK A01 T10341073  RH  074%=      5-min Rain = 0
KAI1 200503Z 14007KT M04/M07 A3028 RMK A01 T10351073  RH  075%=      5-min Rain = 0
KAI1 200504Z 15007KT M04/M07 A3028 RMK A01 T10351073  RH  075%=      5-min Rain = 0
KAI1 200505Z 15007KT M04/M07 A3028 RMK A01 T10351074  RH  075%=      5-min Rain = 0
KAI1 200506Z 15006KT M04/M07 A3028 RMK A01 T10361074  RH  075%=      5-min Rain = 0
KAI1 200507Z 15007KT M04/M07 A3028 RMK A01 T10361074  RH  075%=      5-min Rain = 0
KAI1 200508Z 15007KT M04/M07 A3028 RMK A01 T10361073  RH  075%=      5-min Rain = 0
KAI1 200509Z 15007KT M04/M07 A3028 RMK A01 T10361073  RH  075%=      5-min Rain = 0
KAI1 200510Z 15007KT M04/M07 A3028 RMK A01 T10371074  RH  076%=      5-min Rain = 0
KAI1 200511Z 15007KT M04/M07 A3028 RMK A01 T10371074  RH  076%=      5-min Rain = 0
KAI1 200512Z 15006KT M04/M07 A3028 RMK A01 T10371073  RH  076%=      5-min Rain = 0
KAI1 200513Z 15006KT M04/M07 A3028 RMK A01 T10381073  RH  076%=      5-min Rain = 0
KAI1 200514Z 15006KT M04/M07 A3028 RMK A01 T10371072  RH  077%=      5-min Rain = 0
KAI1 200515Z 16006KT M04/M07 A3028 RMK A01 T10371072  RH  077%=      5-min Rain = 0
KAI1 200516Z 16007KT M04/M07 A3028 RMK A01 T10361071  RH  077%=      5-min Rain = 0
KAI1 200517Z 17007KT M03/M07 A3028 RMK A01 T10341070  RH  077%=      5-min Rain = 0
KAI1 200518Z 18007KT M03/M07 A3028 RMK A01 T10331068  RH  077%=      5-min Rain = 0
KAI1 200519Z 18006KT M03/M07 A3028 RMK A01 T10321066  RH  078%=      5-min Rain = 0
KAI1 200520Z 17006KT M03/M07 A3028 RMK A01 T10331065  RH  078%=      5-min Rain = 0
KAI1 200521Z 16006KT M04/M07 A3028 RMK A01 T10351068  RH  078%=      5-min Rain = 0
KAI1 200522Z 16006KT M04/M07 A3028 RMK A01 T10371069  RH  078%=      5-min Rain = 0
KAI1 200523Z 16006KT M04/M07 A3028 RMK A01 T10381069  RH  079%=      5-min Rain = 0
KAI1 200524Z 16006KT M04/M07 A3028 RMK A01 T10381069  RH  079%=      5-min Rain = 0
KAI1 200525Z 16005KT M04/M07 A3028 RMK A01 T10371070  RH  078%=      5-min Rain = 0
KAI1 200526Z 16005KT M04/M07 A3028 RMK A01 T10381072  RH  077%=      5-min Rain = 0
KAI1 200527Z 16005KT M04/M07 A3028 RMK A01 T10381072  RH  077%=      5-min Rain = 0
KAI1 200528Z 16006KT M04/M07 A3028 RMK A01 T10381073  RH  077%=      5-min Rain = 0
KAI1 200529Z 15006KT M04/M07 A3028 RMK A01 T10391074  RH  077%=      5-min Rain = 0
KAI1 200530Z 15006KT M04/M07 A3028 RMK A01 T10391074  RH  077%=      5-min Rain = 0
KAI1 200531Z 15006KT M04/M07 A3028 RMK A01 T10391074  RH  077%=      5-min Rain = 0
KAI1 200532Z 15006KT M04/M07 A3028 RMK A01 T10391074  RH  077%=      5-min Rain = 0
KAI1 200533Z 16007KT M04/M07 A3028 RMK A01 T10401074  RH  077%=      5-min Rain = 0
KAI1 200534Z 16007KT M04/M07 A3028 RMK A01 T10401074  RH  077%=      5-min Rain = 0
KAI1 200535Z 16006KT M04/M08 A3028 RMK A01 T10411075  RH  077%=      5-min Rain = 0
KAI1 200536Z 16006KT M04/M08 A3028 RMK A01 T10421077  RH  077%=      5-min Rain = 0
KAI1 200537Z 16007KT M04/M08 A3028 RMK A01 T10431079  RH  076%=      5-min Rain = 0
KAI1 200538Z 15007KT M04/M08 A3028 RMK A01 T10441078  RH  077%=      5-min Rain = 0
KAI1 200539Z 15007KT M05/M08 A3028 RMK A01 T10451077  RH  078%=      5-min Rain = 0
KAI1 200540Z 15007KT M05/M08 A3028 RMK A01 T10451076  RH  079%=      5-min Rain = 0
KAI1 200541Z 14007KT M04/M07 A3028 RMK A01 T10441074  RH  079%=      5-min Rain = 0
KAI1 200542Z 14007KT M04/M07 A3028 RMK A01 T10421073  RH  079%=      5-min Rain = 0
KAI1 200543Z 14007KT M04/M07 A3028 RMK A01 T10411072  RH  079%=      5-min Rain = 0
KAI1 200544Z 14007KT M04/M07 A3028 RMK A01 T10401072  RH  078%=      5-min Rain = 0
KAI1 200545Z 14007KT M04/M07 A3028 RMK A01 T10391072  RH  078%=      5-min Rain = 0
KAI1 200546Z 14007KT M04/M07 A3028 RMK A01 T10381072  RH  078%=      5-min Rain = 0
KAI1 200547Z 14006KT M04/M07 A3028 RMK A01 T10391072  RH  077%=      5-min Rain = 0
KAI1 200548Z 15006KT M04/M07 A3028 RMK A01 T10391072  RH  078%=      5-min Rain = 0
KAI1 200549Z 15006KT M04/M07 A3029 RMK A01 T10381072  RH  077%=      5-min Rain = 0
KAI1 200550Z 15006KT M04/M07 A3029 RMK A01 T10391073  RH  077%=      5-min Rain = 0
KAI1 200551Z 15006KT M04/M07 A3029 RMK A01 T10391074  RH  077%=      5-min Rain = 0
KAI1 200552Z 15006KT M04/M08 A3029 RMK A01 T10401075  RH  077%=      5-min Rain = 0
KAI1 200553Z 15006KT M04/M08 A3029 RMK A01 T10401075  RH  077%=      5-min Rain = 0
KAI1 200554Z 15005KT M04/M08 A3029 RMK A01 T10411075  RH  077%=      5-min Rain = 0
KAI1 200555Z 15005KT M04/M08 A3029 RMK A01 T10411075  RH  077%=      5-min Rain = 0
KAI1 200556Z 15005KT M04/M08 A3029 RMK A01 T10421075  RH  078%=      5-min Rain = 0
KAI1 200557Z 15005KT M04/M07 A3029 RMK A01 T10421074  RH  078%=      5-min Rain = 0
KAI1 200558Z 15005KT M04/M07 A3029 RMK A01 T10421074  RH  078%=      5-min Rain = 0
KAI1 200559Z 15005KT M04/M07 A3029 RMK A01 T10421074  RH  078%=      5-min Rain = 0

Page generated in 0.1666 seconds.